<?xml version="1.0" encoding="UTF-8" standalone="no" ?>
<gpx xmlns="http://www.topografix.com/GPX/1/1" creator="CompeGPS" version="1.1" xmlns:xsi="http://www.w3.org/2001/XMLSchema-instance" xsi:schemaLocation="http://www.topografix.com/GPX/1/1 http://www.topografix.com/GPX/1/1/gpx.xsd http://www.garmin.com/xmlschemas/GpxExtensions/v3 http://www.garmin.com/xmlschemas/GpxExtensionsv3.xsd http://www.garmin.com/xmlschemas/TrackPointExtension/v1 http://www.garmin.com/xmlschemas/TrackPointExtensionv1.xsd" xmlns:gpxtpx="http://www.garmin.com/xmlschemas/TrackPointExtension/v1">
  <metadata>
    <link href="http://www.compegps.com">
      <text>CompeGPS TEAM, SL</text>
    </link>
    <time>2020-06-28T19:34:34Z</time>
    <bounds maxlat="42.954974" maxlon="-0.279576" minlat="42.929225" minlon="-0.295482"/>
  </metadata>
    <wpt lat="42.945187" lon="-0.286538">
    <ele>1927.2</ele>
    <time>2020-06-30T07:08:18Z</time>
    <name>Debut de la boucle</name>
    <desc></desc>
    <sym>Waypoint</sym>
  </wpt>
  <wpt lat="42.938364" lon="-0.279584">
    <ele>2505.3</ele>
    <time>2020-06-30T07:23:03Z</time>
    <name>Col du Pourtet</name>
    <desc></desc>
    <sym>Waypoint</sym>
  </wpt>
  <wpt lat="42.931120" lon="-0.283797">
    <ele>2617.2</ele>
    <time>2020-06-30T07:37:42Z</time>
    <name>Grand Gabizos</name>
    <desc></desc>
    <sym>Waypoint</sym>
  </wpt>
  <wpt lat="42.930193" lon="-0.294254">
    <ele>2486.7</ele>
    <time>2020-06-30T07:55:54Z</time>
    <name>col 2540m</name>
    <desc></desc>
    <sym>Waypoint</sym>
  </wpt>
  <wpt lat="42.944700" lon="-0.289610">
    <ele>1978.9</ele>
    <time>2020-06-30T07:56:12Z</time>
    <name>Cabane de Larue</name>
    <desc></desc>
    <sym>Waypoint</sym>
  </wpt>
<trk>
    <name>gabizos_taillades</name>
    <userMyTwoNav></userMyTwoNav>
    <serialNumber></serialNumber>
    <trkseg>
      <trkpt lat="42.954026" lon="-0.286975">
        <ele>1364.9</ele>
        <time>2020-06-27T08:08:27Z</time>
      </trkpt>
      <trkpt lat="42.954065" lon="-0.287093">
        <ele>1370.2</ele>
        <time>2020-06-27T08:08:38Z</time>
      </trkpt>
      <trkpt lat="42.954119" lon="-0.287211">
        <ele>1370.2</ele>
        <time>2020-06-27T08:08:49Z</time>
      </trkpt>
      <trkpt lat="42.954146" lon="-0.287334">
        <ele>1369.4</ele>
        <time>2020-06-27T08:08:58Z</time>
      </trkpt>
      <trkpt lat="42.954167" lon="-0.287456">
        <ele>1369.4</ele>
        <time>2020-06-27T08:09:07Z</time>
      </trkpt>
      <trkpt lat="42.954202" lon="-0.287601">
        <ele>1369.4</ele>
        <time>2020-06-27T08:09:17Z</time>
      </trkpt>
      <trkpt lat="42.954252" lon="-0.287736">
        <ele>1369.3</ele>
        <time>2020-06-27T08:09:25Z</time>
      </trkpt>
      <trkpt lat="42.954286" lon="-0.287865">
        <ele>1369.2</ele>
        <time>2020-06-27T08:09:33Z</time>
      </trkpt>
      <trkpt lat="42.954314" lon="-0.287987">
        <ele>1369.2</ele>
        <time>2020-06-27T08:09:41Z</time>
      </trkpt>
      <trkpt lat="42.954339" lon="-0.288133">
        <ele>1369.1</ele>
        <time>2020-06-27T08:09:50Z</time>
      </trkpt>
      <trkpt lat="42.954365" lon="-0.288269">
        <ele>1369.1</ele>
        <time>2020-06-27T08:09:57Z</time>
      </trkpt>
      <trkpt lat="42.954369" lon="-0.288419">
        <ele>1369.0</ele>
        <time>2020-06-27T08:10:06Z</time>
      </trkpt>
      <trkpt lat="42.954413" lon="-0.288566">
        <ele>1368.9</ele>
        <time>2020-06-27T08:10:15Z</time>
      </trkpt>
      <trkpt lat="42.954470" lon="-0.288673">
        <ele>1368.8</ele>
        <time>2020-06-27T08:10:22Z</time>
      </trkpt>
      <trkpt lat="42.954518" lon="-0.288790">
        <ele>1368.8</ele>
        <time>2020-06-27T08:10:31Z</time>
      </trkpt>
      <trkpt lat="42.954595" lon="-0.288888">
        <ele>1368.7</ele>
        <time>2020-06-27T08:10:39Z</time>
      </trkpt>
      <trkpt lat="42.954681" lon="-0.288974">
        <ele>1368.6</ele>
        <time>2020-06-27T08:10:49Z</time>
      </trkpt>
      <trkpt lat="42.954758" lon="-0.289092">
        <ele>1370.8</ele>
        <time>2020-06-27T08:10:59Z</time>
      </trkpt>
      <trkpt lat="42.954847" lon="-0.289171">
        <ele>1370.7</ele>
        <time>2020-06-27T08:11:07Z</time>
      </trkpt>
      <trkpt lat="42.954919" lon="-0.289260">
        <ele>1370.7</ele>
        <time>2020-06-27T08:11:14Z</time>
      </trkpt>
      <trkpt lat="42.954937" lon="-0.289387">
        <ele>1370.6</ele>
        <time>2020-06-27T08:11:23Z</time>
      </trkpt>
      <trkpt lat="42.954948" lon="-0.289513">
        <ele>1370.5</ele>
        <time>2020-06-27T08:11:35Z</time>
      </trkpt>
      <trkpt lat="42.954914" lon="-0.289526">
        <ele>1370.1</ele>
        <time>2020-06-27T08:12:13Z</time>
      </trkpt>
      <trkpt lat="42.954858" lon="-0.289438">
        <ele>1373.0</ele>
        <time>2020-06-27T08:13:05Z</time>
      </trkpt>
      <trkpt lat="42.954795" lon="-0.289351">
        <ele>1375.2</ele>
        <time>2020-06-27T08:13:25Z</time>
      </trkpt>
      <trkpt lat="42.954673" lon="-0.289288">
        <ele>1379.1</ele>
        <time>2020-06-27T08:13:46Z</time>
      </trkpt>
      <trkpt lat="42.954583" lon="-0.289201">
        <ele>1382.2</ele>
        <time>2020-06-27T08:14:06Z</time>
      </trkpt>
      <trkpt lat="42.954484" lon="-0.289205">
        <ele>1382.7</ele>
        <time>2020-06-27T08:14:26Z</time>
      </trkpt>
      <trkpt lat="42.954367" lon="-0.289183">
        <ele>1384.2</ele>
        <time>2020-06-27T08:14:43Z</time>
      </trkpt>
      <trkpt lat="42.954234" lon="-0.289144">
        <ele>1389.0</ele>
        <time>2020-06-27T08:15:06Z</time>
      </trkpt>
      <trkpt lat="42.954141" lon="-0.289055">
        <ele>1391.9</ele>
        <time>2020-06-27T08:15:25Z</time>
      </trkpt>
      <trkpt lat="42.954035" lon="-0.288967">
        <ele>1394.8</ele>
        <time>2020-06-27T08:15:43Z</time>
      </trkpt>
      <trkpt lat="42.953938" lon="-0.288915">
        <ele>1397.7</ele>
        <time>2020-06-27T08:16:01Z</time>
      </trkpt>
      <trkpt lat="42.953865" lon="-0.288905">
        <ele>1401.0</ele>
        <time>2020-06-27T08:16:22Z</time>
      </trkpt>
      <trkpt lat="42.953842" lon="-0.289023">
        <ele>1404.0</ele>
        <time>2020-06-27T08:16:43Z</time>
      </trkpt>
      <trkpt lat="42.953771" lon="-0.288968">
        <ele>1407.9</ele>
        <time>2020-06-27T08:17:05Z</time>
      </trkpt>
      <trkpt lat="42.953728" lon="-0.289007">
        <ele>1415.4</ele>
        <time>2020-06-27T08:17:48Z</time>
      </trkpt>
      <trkpt lat="42.953621" lon="-0.288967">
        <ele>1419.9</ele>
        <time>2020-06-27T08:18:29Z</time>
      </trkpt>
      <trkpt lat="42.953554" lon="-0.288872">
        <ele>1423.1</ele>
        <time>2020-06-27T08:18:50Z</time>
      </trkpt>
      <trkpt lat="42.953443" lon="-0.288720">
        <ele>1425.4</ele>
        <time>2020-06-27T08:19:08Z</time>
      </trkpt>
      <trkpt lat="42.953335" lon="-0.288664">
        <ele>1428.4</ele>
        <time>2020-06-27T08:19:28Z</time>
      </trkpt>
      <trkpt lat="42.953284" lon="-0.288595">
        <ele>1428.8</ele>
        <time>2020-06-27T08:19:47Z</time>
      </trkpt>
      <trkpt lat="42.953220" lon="-0.288493">
        <ele>1431.6</ele>
        <time>2020-06-27T08:20:10Z</time>
      </trkpt>
      <trkpt lat="42.953150" lon="-0.288473">
        <ele>1434.5</ele>
        <time>2020-06-27T08:20:31Z</time>
      </trkpt>
      <trkpt lat="42.953069" lon="-0.288458">
        <ele>1436.6</ele>
        <time>2020-06-27T08:20:47Z</time>
      </trkpt>
      <trkpt lat="42.953050" lon="-0.288375">
        <ele>1438.6</ele>
        <time>2020-06-27T08:21:04Z</time>
      </trkpt>
      <trkpt lat="42.953195" lon="-0.288300">
        <ele>1441.6</ele>
        <time>2020-06-27T08:21:23Z</time>
      </trkpt>
      <trkpt lat="42.953254" lon="-0.288246">
        <ele>1444.3</ele>
        <time>2020-06-27T08:21:45Z</time>
      </trkpt>
      <trkpt lat="42.953235" lon="-0.288170">
        <ele>1448.6</ele>
        <time>2020-06-27T08:22:08Z</time>
      </trkpt>
      <trkpt lat="42.953200" lon="-0.288129">
        <ele>1453.9</ele>
        <time>2020-06-27T08:22:46Z</time>
      </trkpt>
      <trkpt lat="42.953103" lon="-0.288086">
        <ele>1457.0</ele>
        <time>2020-06-27T08:23:03Z</time>
      </trkpt>
      <trkpt lat="42.953080" lon="-0.288069">
        <ele>1460.1</ele>
        <time>2020-06-27T08:23:26Z</time>
      </trkpt>
      <trkpt lat="42.953014" lon="-0.288024">
        <ele>1462.2</ele>
        <time>2020-06-27T08:23:43Z</time>
      </trkpt>
      <trkpt lat="42.953069" lon="-0.287898">
        <ele>1466.2</ele>
        <time>2020-06-27T08:24:04Z</time>
      </trkpt>
      <trkpt lat="42.953016" lon="-0.287783">
        <ele>1470.8</ele>
        <time>2020-06-27T08:24:34Z</time>
      </trkpt>
      <trkpt lat="42.952930" lon="-0.287784">
        <ele>1473.1</ele>
        <time>2020-06-27T08:24:54Z</time>
      </trkpt>
      <trkpt lat="42.952829" lon="-0.287858">
        <ele>1476.4</ele>
        <time>2020-06-27T08:25:14Z</time>
      </trkpt>
      <trkpt lat="42.952827" lon="-0.287685">
        <ele>1479.3</ele>
        <time>2020-06-27T08:25:35Z</time>
      </trkpt>
      <trkpt lat="42.952802" lon="-0.287694">
        <ele>1483.2</ele>
        <time>2020-06-27T08:26:00Z</time>
      </trkpt>
      <trkpt lat="42.952663" lon="-0.287770">
        <ele>1486.3</ele>
        <time>2020-06-27T08:26:26Z</time>
      </trkpt>
      <trkpt lat="42.952581" lon="-0.287678">
        <ele>1489.4</ele>
        <time>2020-06-27T08:26:42Z</time>
      </trkpt>
      <trkpt lat="42.952544" lon="-0.287635">
        <ele>1493.6</ele>
        <time>2020-06-27T08:27:08Z</time>
      </trkpt>
      <trkpt lat="42.952480" lon="-0.287533">
        <ele>1497.7</ele>
        <time>2020-06-27T08:27:29Z</time>
      </trkpt>
      <trkpt lat="42.952410" lon="-0.287462">
        <ele>1501.7</ele>
        <time>2020-06-27T08:27:52Z</time>
      </trkpt>
      <trkpt lat="42.952336" lon="-0.287451">
        <ele>1504.7</ele>
        <time>2020-06-27T08:28:15Z</time>
      </trkpt>
      <trkpt lat="42.952260" lon="-0.287438">
        <ele>1509.2</ele>
        <time>2020-06-27T08:28:39Z</time>
      </trkpt>
      <trkpt lat="42.952157" lon="-0.287428">
        <ele>1512.4</ele>
        <time>2020-06-27T08:29:01Z</time>
      </trkpt>
      <trkpt lat="42.952085" lon="-0.287520">
        <ele>1515.8</ele>
        <time>2020-06-27T08:29:21Z</time>
      </trkpt>
      <trkpt lat="42.952020" lon="-0.287652">
        <ele>1520.6</ele>
        <time>2020-06-27T08:29:42Z</time>
      </trkpt>
      <trkpt lat="42.951980" lon="-0.287635">
        <ele>1523.8</ele>
        <time>2020-06-27T08:30:02Z</time>
      </trkpt>
      <trkpt lat="42.951940" lon="-0.287525">
        <ele>1526.2</ele>
        <time>2020-06-27T08:30:21Z</time>
      </trkpt>
      <trkpt lat="42.951853" lon="-0.287524">
        <ele>1529.6</ele>
        <time>2020-06-27T08:30:42Z</time>
      </trkpt>
      <trkpt lat="42.951784" lon="-0.287514">
        <ele>1531.9</ele>
        <time>2020-06-27T08:31:00Z</time>
      </trkpt>
      <trkpt lat="42.951808" lon="-0.287361">
        <ele>1534.3</ele>
        <time>2020-06-27T08:31:16Z</time>
      </trkpt>
      <trkpt lat="42.951789" lon="-0.287280">
        <ele>1535.9</ele>
        <time>2020-06-27T08:31:33Z</time>
      </trkpt>
      <trkpt lat="42.951819" lon="-0.287220">
        <ele>1538.1</ele>
        <time>2020-06-27T08:31:48Z</time>
      </trkpt>
      <trkpt lat="42.951787" lon="-0.287100">
        <ele>1540.6</ele>
        <time>2020-06-27T08:32:06Z</time>
      </trkpt>
      <trkpt lat="42.951740" lon="-0.286974">
        <ele>1542.1</ele>
        <time>2020-06-27T08:32:21Z</time>
      </trkpt>
      <trkpt lat="42.951687" lon="-0.287006">
        <ele>1545.6</ele>
        <time>2020-06-27T08:32:41Z</time>
      </trkpt>
      <trkpt lat="42.951633" lon="-0.287046">
        <ele>1548.2</ele>
        <time>2020-06-27T08:32:58Z</time>
      </trkpt>
      <trkpt lat="42.951611" lon="-0.287146">
        <ele>1551.6</ele>
        <time>2020-06-27T08:33:15Z</time>
      </trkpt>
      <trkpt lat="42.951569" lon="-0.287141">
        <ele>1554.8</ele>
        <time>2020-06-27T08:33:37Z</time>
      </trkpt>
      <trkpt lat="42.951475" lon="-0.287190">
        <ele>1557.3</ele>
        <time>2020-06-27T08:33:55Z</time>
      </trkpt>
      <trkpt lat="42.951446" lon="-0.287148">
        <ele>1559.9</ele>
        <time>2020-06-27T08:34:13Z</time>
      </trkpt>
      <trkpt lat="42.951394" lon="-0.287099">
        <ele>1564.3</ele>
        <time>2020-06-27T08:34:33Z</time>
      </trkpt>
      <trkpt lat="42.951323" lon="-0.287100">
        <ele>1567.6</ele>
        <time>2020-06-27T08:34:54Z</time>
      </trkpt>
      <trkpt lat="42.951292" lon="-0.287083">
        <ele>1571.0</ele>
        <time>2020-06-27T08:35:14Z</time>
      </trkpt>
      <trkpt lat="42.951276" lon="-0.286973">
        <ele>1573.4</ele>
        <time>2020-06-27T08:35:32Z</time>
      </trkpt>
      <trkpt lat="42.951195" lon="-0.287021">
        <ele>1576.7</ele>
        <time>2020-06-27T08:35:51Z</time>
      </trkpt>
      <trkpt lat="42.951159" lon="-0.286941">
        <ele>1580.0</ele>
        <time>2020-06-27T08:36:11Z</time>
      </trkpt>
      <trkpt lat="42.951115" lon="-0.286896">
        <ele>1582.6</ele>
        <time>2020-06-27T08:36:36Z</time>
      </trkpt>
      <trkpt lat="42.951076" lon="-0.286763">
        <ele>1584.3</ele>
        <time>2020-06-27T08:36:56Z</time>
      </trkpt>
      <trkpt lat="42.951041" lon="-0.286627">
        <ele>1587.6</ele>
        <time>2020-06-27T08:37:15Z</time>
      </trkpt>
      <trkpt lat="42.951007" lon="-0.286498">
        <ele>1589.9</ele>
        <time>2020-06-27T08:37:30Z</time>
      </trkpt>
      <trkpt lat="42.950955" lon="-0.286373">
        <ele>1589.8</ele>
        <time>2020-06-27T08:37:45Z</time>
      </trkpt>
      <trkpt lat="42.950890" lon="-0.286332">
        <ele>1590.4</ele>
        <time>2020-06-27T08:38:00Z</time>
      </trkpt>
      <trkpt lat="42.950832" lon="-0.286222">
        <ele>1591.9</ele>
        <time>2020-06-27T08:38:17Z</time>
      </trkpt>
      <trkpt lat="42.950774" lon="-0.286171">
        <ele>1593.8</ele>
        <time>2020-06-27T08:38:31Z</time>
      </trkpt>
      <trkpt lat="42.950727" lon="-0.286110">
        <ele>1596.9</ele>
        <time>2020-06-27T08:38:50Z</time>
      </trkpt>
      <trkpt lat="42.950681" lon="-0.286023">
        <ele>1601.1</ele>
        <time>2020-06-27T08:39:10Z</time>
      </trkpt>
      <trkpt lat="42.950760" lon="-0.285889">
        <ele>1603.5</ele>
        <time>2020-06-27T08:39:30Z</time>
      </trkpt>
      <trkpt lat="42.950716" lon="-0.285776">
        <ele>1608.3</ele>
        <time>2020-06-27T08:39:54Z</time>
      </trkpt>
      <trkpt lat="42.950746" lon="-0.285644">
        <ele>1611.9</ele>
        <time>2020-06-27T08:40:17Z</time>
      </trkpt>
      <trkpt lat="42.950721" lon="-0.285559">
        <ele>1615.4</ele>
        <time>2020-06-27T08:40:42Z</time>
      </trkpt>
      <trkpt lat="42.950761" lon="-0.285482">
        <ele>1616.9</ele>
        <time>2020-06-27T08:41:01Z</time>
      </trkpt>
      <trkpt lat="42.950727" lon="-0.285358">
        <ele>1616.9</ele>
        <time>2020-06-27T08:41:21Z</time>
      </trkpt>
      <trkpt lat="42.950729" lon="-0.285233">
        <ele>1616.9</ele>
        <time>2020-06-27T08:41:34Z</time>
      </trkpt>
      <trkpt lat="42.950720" lon="-0.285098">
        <ele>1616.9</ele>
        <time>2020-06-27T08:41:48Z</time>
      </trkpt>
      <trkpt lat="42.950698" lon="-0.284962">
        <ele>1617.8</ele>
        <time>2020-06-27T08:42:02Z</time>
      </trkpt>
      <trkpt lat="42.950642" lon="-0.284876">
        <ele>1620.0</ele>
        <time>2020-06-27T08:42:18Z</time>
      </trkpt>
      <trkpt lat="42.950615" lon="-0.284761">
        <ele>1624.3</ele>
        <time>2020-06-27T08:42:38Z</time>
      </trkpt>
      <trkpt lat="42.950607" lon="-0.284666">
        <ele>1629.4</ele>
        <time>2020-06-27T08:43:13Z</time>
      </trkpt>
      <trkpt lat="42.950537" lon="-0.284869">
        <ele>1654.7</ele>
        <time>2020-06-27T08:45:37Z</time>
      </trkpt>
      <trkpt lat="42.950436" lon="-0.284929">
        <ele>1658.3</ele>
        <time>2020-06-27T08:45:57Z</time>
      </trkpt>
      <trkpt lat="42.950373" lon="-0.285037">
        <ele>1661.2</ele>
        <time>2020-06-27T08:46:14Z</time>
      </trkpt>
      <trkpt lat="42.950316" lon="-0.285073">
        <ele>1665.0</ele>
        <time>2020-06-27T08:46:34Z</time>
      </trkpt>
      <trkpt lat="42.950249" lon="-0.285128">
        <ele>1668.1</ele>
        <time>2020-06-27T08:46:53Z</time>
      </trkpt>
      <trkpt lat="42.950186" lon="-0.285163">
        <ele>1670.2</ele>
        <time>2020-06-27T08:47:08Z</time>
      </trkpt>
      <trkpt lat="42.950095" lon="-0.285169">
        <ele>1672.9</ele>
        <time>2020-06-27T08:47:23Z</time>
      </trkpt>
      <trkpt lat="42.950070" lon="-0.285084">
        <ele>1675.7</ele>
        <time>2020-06-27T08:47:41Z</time>
      </trkpt>
      <trkpt lat="42.950076" lon="-0.284960">
        <ele>1677.4</ele>
        <time>2020-06-27T08:47:56Z</time>
      </trkpt>
      <trkpt lat="42.950059" lon="-0.284853">
        <ele>1679.9</ele>
        <time>2020-06-27T08:48:10Z</time>
      </trkpt>
      <trkpt lat="42.949995" lon="-0.284778">
        <ele>1680.8</ele>
        <time>2020-06-27T08:48:23Z</time>
      </trkpt>
      <trkpt lat="42.949932" lon="-0.284780">
        <ele>1684.2</ele>
        <time>2020-06-27T08:48:39Z</time>
      </trkpt>
      <trkpt lat="42.949900" lon="-0.284888">
        <ele>1685.9</ele>
        <time>2020-06-27T08:48:54Z</time>
      </trkpt>
      <trkpt lat="42.949828" lon="-0.284958">
        <ele>1687.8</ele>
        <time>2020-06-27T08:49:07Z</time>
      </trkpt>
      <trkpt lat="42.949752" lon="-0.284941">
        <ele>1689.5</ele>
        <time>2020-06-27T08:49:22Z</time>
      </trkpt>
      <trkpt lat="42.949696" lon="-0.284852">
        <ele>1693.0</ele>
        <time>2020-06-27T08:49:41Z</time>
      </trkpt>
      <trkpt lat="42.949634" lon="-0.284761">
        <ele>1695.4</ele>
        <time>2020-06-27T08:50:00Z</time>
      </trkpt>
      <trkpt lat="42.949580" lon="-0.284665">
        <ele>1699.1</ele>
        <time>2020-06-27T08:50:18Z</time>
      </trkpt>
      <trkpt lat="42.949562" lon="-0.284548">
        <ele>1701.5</ele>
        <time>2020-06-27T08:50:34Z</time>
      </trkpt>
      <trkpt lat="42.949548" lon="-0.284416">
        <ele>1704.1</ele>
        <time>2020-06-27T08:50:50Z</time>
      </trkpt>
      <trkpt lat="42.949540" lon="-0.284299">
        <ele>1707.3</ele>
        <time>2020-06-27T08:51:07Z</time>
      </trkpt>
      <trkpt lat="42.949539" lon="-0.284161">
        <ele>1709.9</ele>
        <time>2020-06-27T08:51:24Z</time>
      </trkpt>
      <trkpt lat="42.949526" lon="-0.284042">
        <ele>1712.5</ele>
        <time>2020-06-27T08:51:42Z</time>
      </trkpt>
      <trkpt lat="42.949503" lon="-0.283941">
        <ele>1715.0</ele>
        <time>2020-06-27T08:51:58Z</time>
      </trkpt>
      <trkpt lat="42.949428" lon="-0.283986">
        <ele>1716.6</ele>
        <time>2020-06-27T08:52:17Z</time>
      </trkpt>
      <trkpt lat="42.949299" lon="-0.284058">
        <ele>1719.1</ele>
        <time>2020-06-27T08:52:34Z</time>
      </trkpt>
      <trkpt lat="42.949194" lon="-0.284087">
        <ele>1721.4</ele>
        <time>2020-06-27T08:52:47Z</time>
      </trkpt>
      <trkpt lat="42.949093" lon="-0.284118">
        <ele>1724.1</ele>
        <time>2020-06-27T08:53:01Z</time>
      </trkpt>
      <trkpt lat="42.949004" lon="-0.284132">
        <ele>1725.8</ele>
        <time>2020-06-27T08:53:14Z</time>
      </trkpt>
      <trkpt lat="42.948920" lon="-0.284168">
        <ele>1728.4</ele>
        <time>2020-06-27T08:53:33Z</time>
      </trkpt>
      <trkpt lat="42.948890" lon="-0.284135">
        <ele>1730.8</ele>
        <time>2020-06-27T08:53:50Z</time>
      </trkpt>
      <trkpt lat="42.948850" lon="-0.284122">
        <ele>1735.0</ele>
        <time>2020-06-27T08:54:11Z</time>
      </trkpt>
      <trkpt lat="42.948830" lon="-0.284168">
        <ele>1739.0</ele>
        <time>2020-06-27T08:54:32Z</time>
      </trkpt>
      <trkpt lat="42.948780" lon="-0.284220">
        <ele>1742.3</ele>
        <time>2020-06-27T08:54:49Z</time>
      </trkpt>
      <trkpt lat="42.948750" lon="-0.284309">
        <ele>1744.9</ele>
        <time>2020-06-27T08:55:06Z</time>
      </trkpt>
      <trkpt lat="42.948727" lon="-0.284393">
        <ele>1747.3</ele>
        <time>2020-06-27T08:55:21Z</time>
      </trkpt>
      <trkpt lat="42.948690" lon="-0.284520">
        <ele>1749.1</ele>
        <time>2020-06-27T08:55:34Z</time>
      </trkpt>
      <trkpt lat="42.948664" lon="-0.284625">
        <ele>1750.9</ele>
        <time>2020-06-27T08:55:50Z</time>
      </trkpt>
      <trkpt lat="42.948636" lon="-0.284658">
        <ele>1753.3</ele>
        <time>2020-06-27T08:56:07Z</time>
      </trkpt>
      <trkpt lat="42.948626" lon="-0.284511">
        <ele>1754.9</ele>
        <time>2020-06-27T08:56:23Z</time>
      </trkpt>
      <trkpt lat="42.948571" lon="-0.284389">
        <ele>1757.7</ele>
        <time>2020-06-27T08:56:38Z</time>
      </trkpt>
      <trkpt lat="42.948499" lon="-0.284479">
        <ele>1760.4</ele>
        <time>2020-06-27T08:56:54Z</time>
      </trkpt>
      <trkpt lat="42.948431" lon="-0.284589">
        <ele>1762.4</ele>
        <time>2020-06-27T08:57:07Z</time>
      </trkpt>
      <trkpt lat="42.948385" lon="-0.284530">
        <ele>1765.6</ele>
        <time>2020-06-27T08:57:26Z</time>
      </trkpt>
      <trkpt lat="42.948299" lon="-0.284601">
        <ele>1769.0</ele>
        <time>2020-06-27T08:57:43Z</time>
      </trkpt>
      <trkpt lat="42.948248" lon="-0.284735">
        <ele>1772.4</ele>
        <time>2020-06-27T08:57:59Z</time>
      </trkpt>
      <trkpt lat="42.948206" lon="-0.284838">
        <ele>1774.4</ele>
        <time>2020-06-27T08:58:13Z</time>
      </trkpt>
      <trkpt lat="42.948152" lon="-0.284923">
        <ele>1778.0</ele>
        <time>2020-06-27T08:58:30Z</time>
      </trkpt>
      <trkpt lat="42.948085" lon="-0.284989">
        <ele>1780.7</ele>
        <time>2020-06-27T08:58:44Z</time>
      </trkpt>
      <trkpt lat="42.948046" lon="-0.285066">
        <ele>1782.4</ele>
        <time>2020-06-27T08:58:59Z</time>
      </trkpt>
      <trkpt lat="42.948038" lon="-0.285193">
        <ele>1785.9</ele>
        <time>2020-06-27T08:59:19Z</time>
      </trkpt>
      <trkpt lat="42.948000" lon="-0.285290">
        <ele>1789.9</ele>
        <time>2020-06-27T08:59:39Z</time>
      </trkpt>
      <trkpt lat="42.948057" lon="-0.285390">
        <ele>1792.4</ele>
        <time>2020-06-27T08:59:54Z</time>
      </trkpt>
      <trkpt lat="42.948007" lon="-0.285434">
        <ele>1794.0</ele>
        <time>2020-06-27T09:00:09Z</time>
      </trkpt>
      <trkpt lat="42.947912" lon="-0.285436">
        <ele>1796.2</ele>
        <time>2020-06-27T09:00:24Z</time>
      </trkpt>
      <trkpt lat="42.947847" lon="-0.285446">
        <ele>1800.5</ele>
        <time>2020-06-27T09:00:46Z</time>
      </trkpt>
      <trkpt lat="42.947781" lon="-0.285394">
        <ele>1804.0</ele>
        <time>2020-06-27T09:01:01Z</time>
      </trkpt>
      <trkpt lat="42.947677" lon="-0.285365">
        <ele>1806.7</ele>
        <time>2020-06-27T09:01:13Z</time>
      </trkpt>
      <trkpt lat="42.947589" lon="-0.285353">
        <ele>1811.3</ele>
        <time>2020-06-27T09:01:30Z</time>
      </trkpt>
      <trkpt lat="42.947520" lon="-0.285423">
        <ele>1815.0</ele>
        <time>2020-06-27T09:01:47Z</time>
      </trkpt>
      <trkpt lat="42.947474" lon="-0.285536">
        <ele>1819.7</ele>
        <time>2020-06-27T09:02:07Z</time>
      </trkpt>
      <trkpt lat="42.947417" lon="-0.285596">
        <ele>1822.5</ele>
        <time>2020-06-27T09:02:21Z</time>
      </trkpt>
      <trkpt lat="42.947339" lon="-0.285520">
        <ele>1825.3</ele>
        <time>2020-06-27T09:02:34Z</time>
      </trkpt>
      <trkpt lat="42.947327" lon="-0.285392">
        <ele>1827.0</ele>
        <time>2020-06-27T09:02:46Z</time>
      </trkpt>
      <trkpt lat="42.947266" lon="-0.285398">
        <ele>1830.5</ele>
        <time>2020-06-27T09:03:02Z</time>
      </trkpt>
      <trkpt lat="42.947183" lon="-0.285384">
        <ele>1833.1</ele>
        <time>2020-06-27T09:03:17Z</time>
      </trkpt>
      <trkpt lat="42.947081" lon="-0.285398">
        <ele>1835.7</ele>
        <time>2020-06-27T09:03:30Z</time>
      </trkpt>
      <trkpt lat="42.947013" lon="-0.285395">
        <ele>1839.3</ele>
        <time>2020-06-27T09:03:44Z</time>
      </trkpt>
      <trkpt lat="42.946920" lon="-0.285409">
        <ele>1844.6</ele>
        <time>2020-06-27T09:04:02Z</time>
      </trkpt>
      <trkpt lat="42.946797" lon="-0.285493">
        <ele>1848.2</ele>
        <time>2020-06-27T09:04:19Z</time>
      </trkpt>
      <trkpt lat="42.946694" lon="-0.285531">
        <ele>1851.9</ele>
        <time>2020-06-27T09:04:34Z</time>
      </trkpt>
      <trkpt lat="42.946593" lon="-0.285676">
        <ele>1854.2</ele>
        <time>2020-06-27T09:04:49Z</time>
      </trkpt>
      <trkpt lat="42.946500" lon="-0.285807">
        <ele>1858.3</ele>
        <time>2020-06-27T09:05:07Z</time>
      </trkpt>
      <trkpt lat="42.946442" lon="-0.285904">
        <ele>1861.6</ele>
        <time>2020-06-27T09:05:24Z</time>
      </trkpt>
      <trkpt lat="42.946431" lon="-0.285968">
        <ele>1867.9</ele>
        <time>2020-06-27T09:05:51Z</time>
      </trkpt>
      <trkpt lat="42.946414" lon="-0.285977">
        <ele>1871.6</ele>
        <time>2020-06-27T09:06:08Z</time>
      </trkpt>
      <trkpt lat="42.946386" lon="-0.285993">
        <ele>1875.4</ele>
        <time>2020-06-27T09:06:26Z</time>
      </trkpt>
      <trkpt lat="42.946342" lon="-0.285914">
        <ele>1878.2</ele>
        <time>2020-06-27T09:06:38Z</time>
      </trkpt>
      <trkpt lat="42.946304" lon="-0.285775">
        <ele>1880.5</ele>
        <time>2020-06-27T09:06:52Z</time>
      </trkpt>
      <trkpt lat="42.946220" lon="-0.285847">
        <ele>1884.6</ele>
        <time>2020-06-27T09:07:09Z</time>
      </trkpt>
      <trkpt lat="42.946134" lon="-0.285974">
        <ele>1886.6</ele>
        <time>2020-06-27T09:07:20Z</time>
      </trkpt>
      <trkpt lat="42.946053" lon="-0.286092">
        <ele>1888.4</ele>
        <time>2020-06-27T09:07:31Z</time>
      </trkpt>
      <trkpt lat="42.945961" lon="-0.286194">
        <ele>1892.0</ele>
        <time>2020-06-27T09:07:44Z</time>
      </trkpt>
      <trkpt lat="42.945885" lon="-0.286241">
        <ele>1906.1</ele>
        <time>2020-06-27T09:14:02Z</time>
      </trkpt>
      <trkpt lat="42.945821" lon="-0.286258">
        <ele>1907.1</ele>
        <time>2020-06-27T09:14:17Z</time>
      </trkpt>
      <trkpt lat="42.945723" lon="-0.286268">
        <ele>1908.0</ele>
        <time>2020-06-27T09:14:30Z</time>
      </trkpt>
      <trkpt lat="42.945638" lon="-0.286295">
        <ele>1909.7</ele>
        <time>2020-06-27T09:14:45Z</time>
      </trkpt>
      <trkpt lat="42.945544" lon="-0.286370">
        <ele>1911.7</ele>
        <time>2020-06-27T09:14:59Z</time>
      </trkpt>
      <trkpt lat="42.945449" lon="-0.286418">
        <ele>1913.6</ele>
        <time>2020-06-27T09:15:11Z</time>
      </trkpt>
      <trkpt lat="42.945363" lon="-0.286467">
        <ele>1916.3</ele>
        <time>2020-06-27T09:15:24Z</time>
      </trkpt>
      <trkpt lat="42.945268" lon="-0.286499">
        <ele>1918.1</ele>
        <time>2020-06-27T09:15:38Z</time>
      </trkpt>
      <trkpt lat="42.945187" lon="-0.286538">
        <ele>1919.9</ele>
        <time>2020-06-27T09:15:55Z</time>
      </trkpt>
      <trkpt lat="42.945085" lon="-0.286486">
        <ele>1921.7</ele>
        <time>2020-06-27T09:16:11Z</time>
      </trkpt>
      <trkpt lat="42.944993" lon="-0.286417">
        <ele>1924.5</ele>
        <time>2020-06-27T09:16:25Z</time>
      </trkpt>
      <trkpt lat="42.944899" lon="-0.286428">
        <ele>1927.1</ele>
        <time>2020-06-27T09:16:39Z</time>
      </trkpt>
      <trkpt lat="42.944821" lon="-0.286327">
        <ele>1929.7</ele>
        <time>2020-06-27T09:16:53Z</time>
      </trkpt>
      <trkpt lat="42.944754" lon="-0.286279">
        <ele>1933.2</ele>
        <time>2020-06-27T09:17:08Z</time>
      </trkpt>
      <trkpt lat="42.944703" lon="-0.286179">
        <ele>1936.0</ele>
        <time>2020-06-27T09:17:24Z</time>
      </trkpt>
      <trkpt lat="42.944613" lon="-0.286084">
        <ele>1939.5</ele>
        <time>2020-06-27T09:17:41Z</time>
      </trkpt>
      <trkpt lat="42.944524" lon="-0.286047">
        <ele>1942.3</ele>
        <time>2020-06-27T09:18:02Z</time>
      </trkpt>
      <trkpt lat="42.944426" lon="-0.286012">
        <ele>1944.8</ele>
        <time>2020-06-27T09:18:17Z</time>
      </trkpt>
      <trkpt lat="42.944351" lon="-0.285982">
        <ele>1947.3</ele>
        <time>2020-06-27T09:18:31Z</time>
      </trkpt>
      <trkpt lat="42.944260" lon="-0.285909">
        <ele>1951.2</ele>
        <time>2020-06-27T09:18:44Z</time>
      </trkpt>
      <trkpt lat="42.944173" lon="-0.285867">
        <ele>1953.1</ele>
        <time>2020-06-27T09:18:58Z</time>
      </trkpt>
      <trkpt lat="42.944078" lon="-0.285819">
        <ele>1956.5</ele>
        <time>2020-06-27T09:19:12Z</time>
      </trkpt>
      <trkpt lat="42.943989" lon="-0.285786">
        <ele>1959.1</ele>
        <time>2020-06-27T09:19:28Z</time>
      </trkpt>
      <trkpt lat="42.943915" lon="-0.285703">
        <ele>1963.1</ele>
        <time>2020-06-27T09:19:44Z</time>
      </trkpt>
      <trkpt lat="42.943856" lon="-0.285575">
        <ele>1965.4</ele>
        <time>2020-06-27T09:19:57Z</time>
      </trkpt>
      <trkpt lat="42.943833" lon="-0.285454">
        <ele>1968.3</ele>
        <time>2020-06-27T09:20:11Z</time>
      </trkpt>
      <trkpt lat="42.943796" lon="-0.285347">
        <ele>1973.2</ele>
        <time>2020-06-27T09:20:31Z</time>
      </trkpt>
      <trkpt lat="42.943710" lon="-0.285272">
        <ele>1976.3</ele>
        <time>2020-06-27T09:20:47Z</time>
      </trkpt>
      <trkpt lat="42.943653" lon="-0.285176">
        <ele>1979.9</ele>
        <time>2020-06-27T09:21:04Z</time>
      </trkpt>
      <trkpt lat="42.943562" lon="-0.285113">
        <ele>1984.3</ele>
        <time>2020-06-27T09:21:24Z</time>
      </trkpt>
      <trkpt lat="42.943476" lon="-0.285054">
        <ele>1989.5</ele>
        <time>2020-06-27T09:22:09Z</time>
      </trkpt>
      <trkpt lat="42.943446" lon="-0.284897">
        <ele>1992.9</ele>
        <time>2020-06-27T09:22:29Z</time>
      </trkpt>
      <trkpt lat="42.943429" lon="-0.284766">
        <ele>1996.4</ele>
        <time>2020-06-27T09:22:49Z</time>
      </trkpt>
      <trkpt lat="42.943380" lon="-0.284648">
        <ele>2000.7</ele>
        <time>2020-06-27T09:23:11Z</time>
      </trkpt>
      <trkpt lat="42.943330" lon="-0.284556">
        <ele>2004.3</ele>
        <time>2020-06-27T09:23:28Z</time>
      </trkpt>
      <trkpt lat="42.943255" lon="-0.284487">
        <ele>2008.8</ele>
        <time>2020-06-27T09:23:50Z</time>
      </trkpt>
      <trkpt lat="42.943177" lon="-0.284469">
        <ele>2013.0</ele>
        <time>2020-06-27T09:24:11Z</time>
      </trkpt>
      <trkpt lat="42.943120" lon="-0.284393">
        <ele>2017.4</ele>
        <time>2020-06-27T09:24:34Z</time>
      </trkpt>
      <trkpt lat="42.943073" lon="-0.284308">
        <ele>2021.6</ele>
        <time>2020-06-27T09:24:55Z</time>
      </trkpt>
      <trkpt lat="42.943010" lon="-0.284242">
        <ele>2025.1</ele>
        <time>2020-06-27T09:25:17Z</time>
      </trkpt>
      <trkpt lat="42.942969" lon="-0.284187">
        <ele>2029.6</ele>
        <time>2020-06-27T09:25:37Z</time>
      </trkpt>
      <trkpt lat="42.942887" lon="-0.284136">
        <ele>2034.1</ele>
        <time>2020-06-27T09:26:01Z</time>
      </trkpt>
      <trkpt lat="42.942822" lon="-0.284063">
        <ele>2039.3</ele>
        <time>2020-06-27T09:26:26Z</time>
      </trkpt>
      <trkpt lat="42.942849" lon="-0.283956">
        <ele>2042.0</ele>
        <time>2020-06-27T09:26:47Z</time>
      </trkpt>
      <trkpt lat="42.942898" lon="-0.283846">
        <ele>2045.3</ele>
        <time>2020-06-27T09:27:06Z</time>
      </trkpt>
      <trkpt lat="42.942885" lon="-0.283745">
        <ele>2049.1</ele>
        <time>2020-06-27T09:27:27Z</time>
      </trkpt>
      <trkpt lat="42.942836" lon="-0.283659">
        <ele>2054.6</ele>
        <time>2020-06-27T09:27:47Z</time>
      </trkpt>
      <trkpt lat="42.942819" lon="-0.283561">
        <ele>2057.4</ele>
        <time>2020-06-27T09:28:06Z</time>
      </trkpt>
      <trkpt lat="42.942870" lon="-0.283454">
        <ele>2062.5</ele>
        <time>2020-06-27T09:28:34Z</time>
      </trkpt>
      <trkpt lat="42.942928" lon="-0.283348">
        <ele>2065.2</ele>
        <time>2020-06-27T09:28:52Z</time>
      </trkpt>
      <trkpt lat="42.942900" lon="-0.283252">
        <ele>2070.6</ele>
        <time>2020-06-27T09:29:22Z</time>
      </trkpt>
      <trkpt lat="42.942832" lon="-0.283238">
        <ele>2075.3</ele>
        <time>2020-06-27T09:29:58Z</time>
      </trkpt>
      <trkpt lat="42.942790" lon="-0.283255">
        <ele>2079.7</ele>
        <time>2020-06-27T09:30:25Z</time>
      </trkpt>
      <trkpt lat="42.942797" lon="-0.283115">
        <ele>2084.3</ele>
        <time>2020-06-27T09:30:53Z</time>
      </trkpt>
      <trkpt lat="42.942780" lon="-0.282995">
        <ele>2088.9</ele>
        <time>2020-06-27T09:31:15Z</time>
      </trkpt>
      <trkpt lat="42.942726" lon="-0.283022">
        <ele>2093.3</ele>
        <time>2020-06-27T09:31:36Z</time>
      </trkpt>
      <trkpt lat="42.942668" lon="-0.282980">
        <ele>2098.3</ele>
        <time>2020-06-27T09:32:18Z</time>
      </trkpt>
      <trkpt lat="42.942623" lon="-0.282874">
        <ele>2102.1</ele>
        <time>2020-06-27T09:32:41Z</time>
      </trkpt>
      <trkpt lat="42.942619" lon="-0.282790">
        <ele>2107.4</ele>
        <time>2020-06-27T09:33:08Z</time>
      </trkpt>
      <trkpt lat="42.942605" lon="-0.282710">
        <ele>2111.9</ele>
        <time>2020-06-27T09:33:37Z</time>
      </trkpt>
      <trkpt lat="42.942544" lon="-0.282747">
        <ele>2115.3</ele>
        <time>2020-06-27T09:34:01Z</time>
      </trkpt>
      <trkpt lat="42.942471" lon="-0.282796">
        <ele>2117.9</ele>
        <time>2020-06-27T09:34:22Z</time>
      </trkpt>
      <trkpt lat="42.942407" lon="-0.282806">
        <ele>2122.4</ele>
        <time>2020-06-27T09:34:50Z</time>
      </trkpt>
      <trkpt lat="42.942349" lon="-0.282766">
        <ele>2127.0</ele>
        <time>2020-06-27T09:35:22Z</time>
      </trkpt>
      <trkpt lat="42.942321" lon="-0.282692">
        <ele>2130.5</ele>
        <time>2020-06-27T09:35:46Z</time>
      </trkpt>
      <trkpt lat="42.942272" lon="-0.282665">
        <ele>2134.7</ele>
        <time>2020-06-27T09:36:09Z</time>
      </trkpt>
      <trkpt lat="42.942223" lon="-0.282616">
        <ele>2137.2</ele>
        <time>2020-06-27T09:36:31Z</time>
      </trkpt>
      <trkpt lat="42.942146" lon="-0.282542">
        <ele>2143.4</ele>
        <time>2020-06-27T09:37:14Z</time>
      </trkpt>
      <trkpt lat="42.942083" lon="-0.282538">
        <ele>2147.9</ele>
        <time>2020-06-27T09:37:37Z</time>
      </trkpt>
      <trkpt lat="42.942037" lon="-0.282483">
        <ele>2152.3</ele>
        <time>2020-06-27T09:38:16Z</time>
      </trkpt>
      <trkpt lat="42.941975" lon="-0.282397">
        <ele>2156.2</ele>
        <time>2020-06-27T09:38:43Z</time>
      </trkpt>
      <trkpt lat="42.941904" lon="-0.282342">
        <ele>2162.2</ele>
        <time>2020-06-27T09:39:11Z</time>
      </trkpt>
      <trkpt lat="42.941816" lon="-0.282383">
        <ele>2165.0</ele>
        <time>2020-06-27T09:39:35Z</time>
      </trkpt>
      <trkpt lat="42.941764" lon="-0.282435">
        <ele>2168.6</ele>
        <time>2020-06-27T09:39:58Z</time>
      </trkpt>
      <trkpt lat="42.941678" lon="-0.282462">
        <ele>2172.9</ele>
        <time>2020-06-27T09:40:22Z</time>
      </trkpt>
      <trkpt lat="42.941594" lon="-0.282459">
        <ele>2176.6</ele>
        <time>2020-06-27T09:40:45Z</time>
      </trkpt>
      <trkpt lat="42.941515" lon="-0.282491">
        <ele>2181.0</ele>
        <time>2020-06-27T09:41:20Z</time>
      </trkpt>
      <trkpt lat="42.941446" lon="-0.282456">
        <ele>2183.7</ele>
        <time>2020-06-27T09:41:41Z</time>
      </trkpt>
      <trkpt lat="42.941405" lon="-0.282352">
        <ele>2187.5</ele>
        <time>2020-06-27T09:42:01Z</time>
      </trkpt>
      <trkpt lat="42.941339" lon="-0.282290">
        <ele>2191.8</ele>
        <time>2020-06-27T09:42:28Z</time>
      </trkpt>
      <trkpt lat="42.941280" lon="-0.282218">
        <ele>2197.0</ele>
        <time>2020-06-27T09:42:58Z</time>
      </trkpt>
      <trkpt lat="42.941210" lon="-0.282179">
        <ele>2200.7</ele>
        <time>2020-06-27T09:43:25Z</time>
      </trkpt>
      <trkpt lat="42.941120" lon="-0.282191">
        <ele>2205.4</ele>
        <time>2020-06-27T09:43:52Z</time>
      </trkpt>
      <trkpt lat="42.941093" lon="-0.282146">
        <ele>2208.9</ele>
        <time>2020-06-27T09:44:43Z</time>
      </trkpt>
      <trkpt lat="42.941048" lon="-0.282035">
        <ele>2211.8</ele>
        <time>2020-06-27T09:45:06Z</time>
      </trkpt>
      <trkpt lat="42.941029" lon="-0.281933">
        <ele>2214.6</ele>
        <time>2020-06-27T09:45:24Z</time>
      </trkpt>
      <trkpt lat="42.941034" lon="-0.281885">
        <ele>2218.6</ele>
        <time>2020-06-27T09:45:52Z</time>
      </trkpt>
      <trkpt lat="42.940950" lon="-0.281900">
        <ele>2223.1</ele>
        <time>2020-06-27T09:46:15Z</time>
      </trkpt>
      <trkpt lat="42.940866" lon="-0.281865">
        <ele>2228.2</ele>
        <time>2020-06-27T09:46:42Z</time>
      </trkpt>
      <trkpt lat="42.940839" lon="-0.281793">
        <ele>2231.9</ele>
        <time>2020-06-27T09:47:09Z</time>
      </trkpt>
      <trkpt lat="42.940785" lon="-0.281719">
        <ele>2236.2</ele>
        <time>2020-06-27T09:47:37Z</time>
      </trkpt>
      <trkpt lat="42.940741" lon="-0.281678">
        <ele>2241.5</ele>
        <time>2020-06-27T09:48:11Z</time>
      </trkpt>
      <trkpt lat="42.940693" lon="-0.281637">
        <ele>2247.9</ele>
        <time>2020-06-27T09:48:44Z</time>
      </trkpt>
      <trkpt lat="42.940641" lon="-0.281610">
        <ele>2253.4</ele>
        <time>2020-06-27T09:49:17Z</time>
      </trkpt>
      <trkpt lat="42.940566" lon="-0.281666">
        <ele>2257.2</ele>
        <time>2020-06-27T09:49:48Z</time>
      </trkpt>
      <trkpt lat="42.940517" lon="-0.281604">
        <ele>2258.1</ele>
        <time>2020-06-27T09:50:09Z</time>
      </trkpt>
      <trkpt lat="42.940428" lon="-0.281623">
        <ele>2264.8</ele>
        <time>2020-06-27T09:50:36Z</time>
      </trkpt>
      <trkpt lat="42.940342" lon="-0.281624">
        <ele>2268.2</ele>
        <time>2020-06-27T09:51:01Z</time>
      </trkpt>
      <trkpt lat="42.940267" lon="-0.281606">
        <ele>2270.7</ele>
        <time>2020-06-27T09:51:24Z</time>
      </trkpt>
      <trkpt lat="42.940278" lon="-0.281567">
        <ele>2274.1</ele>
        <time>2020-06-27T09:51:57Z</time>
      </trkpt>
      <trkpt lat="42.940203" lon="-0.281638">
        <ele>2275.0</ele>
        <time>2020-06-27T09:52:19Z</time>
      </trkpt>
      <trkpt lat="42.940193" lon="-0.281557">
        <ele>2279.3</ele>
        <time>2020-06-27T09:52:49Z</time>
      </trkpt>
      <trkpt lat="42.940174" lon="-0.281450">
        <ele>2284.3</ele>
        <time>2020-06-27T09:53:17Z</time>
      </trkpt>
      <trkpt lat="42.940149" lon="-0.281360">
        <ele>2287.9</ele>
        <time>2020-06-27T09:53:43Z</time>
      </trkpt>
      <trkpt lat="42.940142" lon="-0.281337">
        <ele>2289.6</ele>
        <time>2020-06-27T09:54:19Z</time>
      </trkpt>
      <trkpt lat="42.940142" lon="-0.281287">
        <ele>2290.5</ele>
        <time>2020-06-27T09:55:00Z</time>
      </trkpt>
      <trkpt lat="42.940066" lon="-0.281264">
        <ele>2292.1</ele>
        <time>2020-06-27T09:55:33Z</time>
      </trkpt>
      <trkpt lat="42.940051" lon="-0.281204">
        <ele>2293.0</ele>
        <time>2020-06-27T09:56:06Z</time>
      </trkpt>
      <trkpt lat="42.940094" lon="-0.281037">
        <ele>2294.6</ele>
        <time>2020-06-27T09:56:23Z</time>
      </trkpt>
      <trkpt lat="42.940115" lon="-0.280890">
        <ele>2296.4</ele>
        <time>2020-06-27T09:56:40Z</time>
      </trkpt>
      <trkpt lat="42.940058" lon="-0.280804">
        <ele>2299.5</ele>
        <time>2020-06-27T09:57:06Z</time>
      </trkpt>
      <trkpt lat="42.940037" lon="-0.280740">
        <ele>2303.4</ele>
        <time>2020-06-27T09:57:29Z</time>
      </trkpt>
      <trkpt lat="42.939973" lon="-0.280676">
        <ele>2306.4</ele>
        <time>2020-06-27T09:58:00Z</time>
      </trkpt>
      <trkpt lat="42.939912" lon="-0.280597">
        <ele>2312.3</ele>
        <time>2020-06-27T09:58:45Z</time>
      </trkpt>
      <trkpt lat="42.939836" lon="-0.280588">
        <ele>2315.4</ele>
        <time>2020-06-27T09:59:09Z</time>
      </trkpt>
      <trkpt lat="42.939774" lon="-0.280535">
        <ele>2319.4</ele>
        <time>2020-06-27T09:59:42Z</time>
      </trkpt>
      <trkpt lat="42.939720" lon="-0.280497">
        <ele>2322.8</ele>
        <time>2020-06-27T10:00:17Z</time>
      </trkpt>
      <trkpt lat="42.939654" lon="-0.280455">
        <ele>2327.6</ele>
        <time>2020-06-27T10:00:59Z</time>
      </trkpt>
      <trkpt lat="42.939652" lon="-0.280337">
        <ele>2333.2</ele>
        <time>2020-06-27T10:02:01Z</time>
      </trkpt>
      <trkpt lat="42.939699" lon="-0.280263">
        <ele>2336.9</ele>
        <time>2020-06-27T10:02:32Z</time>
      </trkpt>
      <trkpt lat="42.939690" lon="-0.280214">
        <ele>2340.1</ele>
        <time>2020-06-27T10:03:15Z</time>
      </trkpt>
      <trkpt lat="42.939769" lon="-0.280122">
        <ele>2343.5</ele>
        <time>2020-06-27T10:03:35Z</time>
      </trkpt>
      <trkpt lat="42.939712" lon="-0.280008">
        <ele>2347.6</ele>
        <time>2020-06-27T10:03:59Z</time>
      </trkpt>
      <trkpt lat="42.939633" lon="-0.279934">
        <ele>2349.4</ele>
        <time>2020-06-27T10:04:13Z</time>
      </trkpt>
      <trkpt lat="42.939611" lon="-0.279897">
        <ele>2352.6</ele>
        <time>2020-06-27T10:04:35Z</time>
      </trkpt>
      <trkpt lat="42.939514" lon="-0.279840">
        <ele>2357.2</ele>
        <time>2020-06-27T10:05:24Z</time>
      </trkpt>
      <trkpt lat="42.939444" lon="-0.279833">
        <ele>2361.3</ele>
        <time>2020-06-27T10:05:53Z</time>
      </trkpt>
      <trkpt lat="42.939399" lon="-0.279777">
        <ele>2364.3</ele>
        <time>2020-06-27T10:06:22Z</time>
      </trkpt>
      <trkpt lat="42.939330" lon="-0.279740">
        <ele>2368.5</ele>
        <time>2020-06-27T10:06:49Z</time>
      </trkpt>
      <trkpt lat="42.939264" lon="-0.279789">
        <ele>2371.4</ele>
        <time>2020-06-27T10:07:27Z</time>
      </trkpt>
      <trkpt lat="42.939176" lon="-0.279804">
        <ele>2376.5</ele>
        <time>2020-06-27T10:08:00Z</time>
      </trkpt>
      <trkpt lat="42.939120" lon="-0.279866">
        <ele>2378.8</ele>
        <time>2020-06-27T10:08:17Z</time>
      </trkpt>
      <trkpt lat="42.939064" lon="-0.279806">
        <ele>2383.0</ele>
        <time>2020-06-27T10:08:47Z</time>
      </trkpt>
      <trkpt lat="42.939000" lon="-0.279745">
        <ele>2388.0</ele>
        <time>2020-06-27T10:09:20Z</time>
      </trkpt>
      <trkpt lat="42.938959" lon="-0.279709">
        <ele>2393.7</ele>
        <time>2020-06-27T10:11:20Z</time>
      </trkpt>
      <trkpt lat="42.938974" lon="-0.279627">
        <ele>2396.5</ele>
        <time>2020-06-27T10:11:54Z</time>
      </trkpt>
      <trkpt lat="42.938918" lon="-0.279597">
        <ele>2399.0</ele>
        <time>2020-06-27T10:12:22Z</time>
      </trkpt>
      <trkpt lat="42.938863" lon="-0.279600">
        <ele>2400.8</ele>
        <time>2020-06-27T10:12:44Z</time>
      </trkpt>
      <trkpt lat="42.938841" lon="-0.279576">
        <ele>2403.5</ele>
        <time>2020-06-27T10:13:18Z</time>
      </trkpt>
      <trkpt lat="42.938779" lon="-0.279625">
        <ele>2408.6</ele>
        <time>2020-06-27T10:14:18Z</time>
      </trkpt>
      <trkpt lat="42.938728" lon="-0.279624">
        <ele>2413.2</ele>
        <time>2020-06-27T10:15:02Z</time>
      </trkpt>
      <trkpt lat="42.938645" lon="-0.279682">
        <ele>2414.1</ele>
        <time>2020-06-27T10:15:29Z</time>
      </trkpt>
      <trkpt lat="42.938612" lon="-0.279683">
        <ele>2416.8</ele>
        <time>2020-06-27T10:16:21Z</time>
      </trkpt>
      <trkpt lat="42.938611" lon="-0.279654">
        <ele>2420.3</ele>
        <time>2020-06-27T10:16:54Z</time>
      </trkpt>
      <trkpt lat="42.938543" lon="-0.279662">
        <ele>2425.6</ele>
        <time>2020-06-27T10:17:26Z</time>
      </trkpt>
      <trkpt lat="42.938442" lon="-0.279636">
        <ele>2429.2</ele>
        <time>2020-06-27T10:17:53Z</time>
      </trkpt>
      <trkpt lat="42.938364" lon="-0.279584">
        <ele>2433.2</ele>
        <time>2020-06-27T10:18:17Z</time>
      </trkpt>
      <trkpt lat="42.938280" lon="-0.279576">
        <ele>2435.0</ele>
        <time>2020-06-27T10:18:41Z</time>
      </trkpt>
      <trkpt lat="42.938248" lon="-0.279710">
        <ele>2447.3</ele>
        <time>2020-06-27T10:29:05Z</time>
      </trkpt>
      <trkpt lat="42.938171" lon="-0.279765">
        <ele>2447.5</ele>
        <time>2020-06-27T10:29:27Z</time>
      </trkpt>
      <trkpt lat="42.938144" lon="-0.279835">
        <ele>2450.0</ele>
        <time>2020-06-27T10:29:51Z</time>
      </trkpt>
      <trkpt lat="42.938086" lon="-0.279903">
        <ele>2451.9</ele>
        <time>2020-06-27T10:30:12Z</time>
      </trkpt>
      <trkpt lat="42.938009" lon="-0.279991">
        <ele>2456.5</ele>
        <time>2020-06-27T10:30:39Z</time>
      </trkpt>
      <trkpt lat="42.937957" lon="-0.280051">
        <ele>2464.8</ele>
        <time>2020-06-27T10:31:48Z</time>
      </trkpt>
      <trkpt lat="42.937907" lon="-0.280127">
        <ele>2470.2</ele>
        <time>2020-06-27T10:32:27Z</time>
      </trkpt>
      <trkpt lat="42.937861" lon="-0.280214">
        <ele>2481.1</ele>
        <time>2020-06-27T10:33:58Z</time>
      </trkpt>
      <trkpt lat="42.937820" lon="-0.280299">
        <ele>2488.4</ele>
        <time>2020-06-27T10:34:41Z</time>
      </trkpt>
      <trkpt lat="42.937757" lon="-0.280407">
        <ele>2500.0</ele>
        <time>2020-06-27T10:36:03Z</time>
      </trkpt>
      <trkpt lat="42.937677" lon="-0.280475">
        <ele>2506.4</ele>
        <time>2020-06-27T10:36:53Z</time>
      </trkpt>
      <trkpt lat="42.937615" lon="-0.280559">
        <ele>2512.5</ele>
        <time>2020-06-27T10:37:51Z</time>
      </trkpt>
      <trkpt lat="42.937560" lon="-0.280546">
        <ele>2514.5</ele>
        <time>2020-06-27T10:38:20Z</time>
      </trkpt>
      <trkpt lat="42.937486" lon="-0.280513">
        <ele>2521.1</ele>
        <time>2020-06-27T10:38:49Z</time>
      </trkpt>
      <trkpt lat="42.937413" lon="-0.280470">
        <ele>2524.4</ele>
        <time>2020-06-27T10:39:23Z</time>
      </trkpt>
      <trkpt lat="42.937320" lon="-0.280504">
        <ele>2529.4</ele>
        <time>2020-06-27T10:41:02Z</time>
      </trkpt>
      <trkpt lat="42.937228" lon="-0.280568">
        <ele>2538.3</ele>
        <time>2020-06-27T10:42:17Z</time>
      </trkpt>
      <trkpt lat="42.937167" lon="-0.280598">
        <ele>2545.9</ele>
        <time>2020-06-27T10:45:40Z</time>
      </trkpt>
      <trkpt lat="42.937078" lon="-0.280607">
        <ele>2552.3</ele>
        <time>2020-06-27T10:46:43Z</time>
      </trkpt>
      <trkpt lat="42.936973" lon="-0.280605">
        <ele>2558.3</ele>
        <time>2020-06-27T10:48:03Z</time>
      </trkpt>
      <trkpt lat="42.936896" lon="-0.280524">
        <ele>2557.0</ele>
        <time>2020-06-27T10:48:42Z</time>
      </trkpt>
      <trkpt lat="42.936814" lon="-0.280524">
        <ele>2562.6</ele>
        <time>2020-06-27T10:49:13Z</time>
      </trkpt>
      <trkpt lat="42.936742" lon="-0.280513">
        <ele>2569.8</ele>
        <time>2020-06-27T10:49:58Z</time>
      </trkpt>
      <trkpt lat="42.936662" lon="-0.280533">
        <ele>2574.7</ele>
        <time>2020-06-27T10:50:36Z</time>
      </trkpt>
      <trkpt lat="42.936576" lon="-0.280526">
        <ele>2578.4</ele>
        <time>2020-06-27T10:51:00Z</time>
      </trkpt>
      <trkpt lat="42.936478" lon="-0.280499">
        <ele>2580.2</ele>
        <time>2020-06-27T10:51:27Z</time>
      </trkpt>
      <trkpt lat="42.936396" lon="-0.280418">
        <ele>2578.2</ele>
        <time>2020-06-27T10:52:07Z</time>
      </trkpt>
      <trkpt lat="42.936303" lon="-0.280441">
        <ele>2578.5</ele>
        <time>2020-06-27T10:52:28Z</time>
      </trkpt>
      <trkpt lat="42.936204" lon="-0.280443">
        <ele>2584.7</ele>
        <time>2020-06-27T10:53:00Z</time>
      </trkpt>
      <trkpt lat="42.936134" lon="-0.280505">
        <ele>2591.2</ele>
        <time>2020-06-27T10:53:38Z</time>
      </trkpt>
      <trkpt lat="42.936045" lon="-0.280550">
        <ele>2595.6</ele>
        <time>2020-06-27T10:54:06Z</time>
      </trkpt>
      <trkpt lat="42.935950" lon="-0.280533">
        <ele>2599.9</ele>
        <time>2020-06-27T10:54:37Z</time>
      </trkpt>
      <trkpt lat="42.935916" lon="-0.280606">
        <ele>2604.5</ele>
        <time>2020-06-27T10:55:52Z</time>
      </trkpt>
      <trkpt lat="42.935902" lon="-0.280695">
        <ele>2613.2</ele>
        <time>2020-06-27T10:56:41Z</time>
      </trkpt>
      <trkpt lat="42.935860" lon="-0.280739">
        <ele>2619.0</ele>
        <time>2020-06-27T10:57:41Z</time>
      </trkpt>
      <trkpt lat="42.935790" lon="-0.280797">
        <ele>2622.8</ele>
        <time>2020-06-27T10:58:22Z</time>
      </trkpt>
      <trkpt lat="42.935693" lon="-0.280878">
        <ele>2628.0</ele>
        <time>2020-06-27T10:58:43Z</time>
      </trkpt>
      <trkpt lat="42.935595" lon="-0.280894">
        <ele>2632.5</ele>
        <time>2020-06-27T10:59:02Z</time>
      </trkpt>
      <trkpt lat="42.935505" lon="-0.280940">
        <ele>2637.2</ele>
        <time>2020-06-27T10:59:25Z</time>
      </trkpt>
      <trkpt lat="42.935397" lon="-0.280953">
        <ele>2638.9</ele>
        <time>2020-06-27T10:59:44Z</time>
      </trkpt>
      <trkpt lat="42.935312" lon="-0.281016">
        <ele>2642.9</ele>
        <time>2020-06-27T11:00:04Z</time>
      </trkpt>
      <trkpt lat="42.935232" lon="-0.281076">
        <ele>2644.5</ele>
        <time>2020-06-27T11:00:18Z</time>
      </trkpt>
      <trkpt lat="42.935129" lon="-0.281082">
        <ele>2644.7</ele>
        <time>2020-06-27T11:00:34Z</time>
      </trkpt>
      <trkpt lat="42.935047" lon="-0.281093">
        <ele>2647.6</ele>
        <time>2020-06-27T11:01:18Z</time>
      </trkpt>
      <trkpt lat="42.934952" lon="-0.281088">
        <ele>2645.8</ele>
        <time>2020-06-27T11:01:49Z</time>
      </trkpt>
      <trkpt lat="42.934889" lon="-0.281095">
        <ele>2642.9</ele>
        <time>2020-06-27T11:02:29Z</time>
      </trkpt>
      <trkpt lat="42.934802" lon="-0.281084">
        <ele>2633.5</ele>
        <time>2020-06-27T11:03:31Z</time>
      </trkpt>
      <trkpt lat="42.934747" lon="-0.281162">
        <ele>2628.8</ele>
        <time>2020-06-27T11:04:16Z</time>
      </trkpt>
      <trkpt lat="42.934662" lon="-0.281202">
        <ele>2625.5</ele>
        <time>2020-06-27T11:04:45Z</time>
      </trkpt>
      <trkpt lat="42.934622" lon="-0.281198">
        <ele>2622.6</ele>
        <time>2020-06-27T11:05:15Z</time>
      </trkpt>
      <trkpt lat="42.934545" lon="-0.281226">
        <ele>2617.4</ele>
        <time>2020-06-27T11:06:03Z</time>
      </trkpt>
      <trkpt lat="42.934484" lon="-0.281262">
        <ele>2613.1</ele>
        <time>2020-06-27T11:06:28Z</time>
      </trkpt>
      <trkpt lat="42.934442" lon="-0.281312">
        <ele>2605.6</ele>
        <time>2020-06-27T11:07:47Z</time>
      </trkpt>
      <trkpt lat="42.934417" lon="-0.281395">
        <ele>2601.4</ele>
        <time>2020-06-27T11:08:18Z</time>
      </trkpt>
      <trkpt lat="42.934332" lon="-0.281375">
        <ele>2599.3</ele>
        <time>2020-06-27T11:08:37Z</time>
      </trkpt>
      <trkpt lat="42.934258" lon="-0.281367">
        <ele>2603.8</ele>
        <time>2020-06-27T11:09:13Z</time>
      </trkpt>
      <trkpt lat="42.934166" lon="-0.281303">
        <ele>2603.8</ele>
        <time>2020-06-27T11:09:33Z</time>
      </trkpt>
      <trkpt lat="42.934106" lon="-0.281362">
        <ele>2606.8</ele>
        <time>2020-06-27T11:11:08Z</time>
      </trkpt>
      <trkpt lat="42.934063" lon="-0.281425">
        <ele>2614.6</ele>
        <time>2020-06-27T11:11:48Z</time>
      </trkpt>
      <trkpt lat="42.933993" lon="-0.281495">
        <ele>2621.8</ele>
        <time>2020-06-27T11:12:28Z</time>
      </trkpt>
      <trkpt lat="42.933922" lon="-0.281582">
        <ele>2628.3</ele>
        <time>2020-06-27T11:12:59Z</time>
      </trkpt>
      <trkpt lat="42.933850" lon="-0.281627">
        <ele>2631.6</ele>
        <time>2020-06-27T11:13:23Z</time>
      </trkpt>
      <trkpt lat="42.933762" lon="-0.281596">
        <ele>2632.5</ele>
        <time>2020-06-27T11:13:44Z</time>
      </trkpt>
      <trkpt lat="42.933669" lon="-0.281577">
        <ele>2628.3</ele>
        <time>2020-06-27T11:14:15Z</time>
      </trkpt>
      <trkpt lat="42.933598" lon="-0.281612">
        <ele>2625.2</ele>
        <time>2020-06-27T11:14:59Z</time>
      </trkpt>
      <trkpt lat="42.933527" lon="-0.281659">
        <ele>2630.6</ele>
        <time>2020-06-27T11:15:36Z</time>
      </trkpt>
      <trkpt lat="42.933481" lon="-0.281727">
        <ele>2636.9</ele>
        <time>2020-06-27T11:16:10Z</time>
      </trkpt>
      <trkpt lat="42.933425" lon="-0.281828">
        <ele>2641.3</ele>
        <time>2020-06-27T11:16:39Z</time>
      </trkpt>
      <trkpt lat="42.933379" lon="-0.281948">
        <ele>2644.9</ele>
        <time>2020-06-27T11:17:03Z</time>
      </trkpt>
      <trkpt lat="42.933356" lon="-0.282074">
        <ele>2646.8</ele>
        <time>2020-06-27T11:17:27Z</time>
      </trkpt>
      <trkpt lat="42.933313" lon="-0.282201">
        <ele>2648.9</ele>
        <time>2020-06-27T11:17:44Z</time>
      </trkpt>
      <trkpt lat="42.933252" lon="-0.282263">
        <ele>2643.9</ele>
        <time>2020-06-27T11:18:07Z</time>
      </trkpt>
      <trkpt lat="42.933178" lon="-0.282274">
        <ele>2638.8</ele>
        <time>2020-06-27T11:18:43Z</time>
      </trkpt>
      <trkpt lat="42.933128" lon="-0.282340">
        <ele>2635.4</ele>
        <time>2020-06-27T11:19:03Z</time>
      </trkpt>
      <trkpt lat="42.933071" lon="-0.282421">
        <ele>2625.4</ele>
        <time>2020-06-27T11:20:08Z</time>
      </trkpt>
      <trkpt lat="42.933015" lon="-0.282484">
        <ele>2626.9</ele>
        <time>2020-06-27T11:20:45Z</time>
      </trkpt>
      <trkpt lat="42.932941" lon="-0.282531">
        <ele>2631.3</ele>
        <time>2020-06-27T11:21:11Z</time>
      </trkpt>
      <trkpt lat="42.932852" lon="-0.282513">
        <ele>2632.4</ele>
        <time>2020-06-27T11:21:26Z</time>
      </trkpt>
      <trkpt lat="42.932766" lon="-0.282522">
        <ele>2632.4</ele>
        <time>2020-06-27T11:21:42Z</time>
      </trkpt>
      <trkpt lat="42.932694" lon="-0.282521">
        <ele>2627.6</ele>
        <time>2020-06-27T11:22:34Z</time>
      </trkpt>
      <trkpt lat="42.932632" lon="-0.282562">
        <ele>2625.2</ele>
        <time>2020-06-27T11:23:06Z</time>
      </trkpt>
      <trkpt lat="42.932604" lon="-0.282547">
        <ele>2619.5</ele>
        <time>2020-06-27T11:24:57Z</time>
      </trkpt>
      <trkpt lat="42.932558" lon="-0.282565">
        <ele>2621.5</ele>
        <time>2020-06-27T11:25:53Z</time>
      </trkpt>
      <trkpt lat="42.932522" lon="-0.282657">
        <ele>2628.8</ele>
        <time>2020-06-27T11:26:39Z</time>
      </trkpt>
      <trkpt lat="42.932465" lon="-0.282705">
        <ele>2632.6</ele>
        <time>2020-06-27T11:27:11Z</time>
      </trkpt>
      <trkpt lat="42.932406" lon="-0.282793">
        <ele>2634.3</ele>
        <time>2020-06-27T11:27:33Z</time>
      </trkpt>
      <trkpt lat="42.932354" lon="-0.282883">
        <ele>2636.0</ele>
        <time>2020-06-27T11:28:12Z</time>
      </trkpt>
      <trkpt lat="42.932264" lon="-0.282927">
        <ele>2638.6</ele>
        <time>2020-06-27T11:28:44Z</time>
      </trkpt>
      <trkpt lat="42.932170" lon="-0.283011">
        <ele>2638.6</ele>
        <time>2020-06-27T11:29:31Z</time>
      </trkpt>
      <trkpt lat="42.932140" lon="-0.283103">
        <ele>2631.4</ele>
        <time>2020-06-27T11:31:23Z</time>
      </trkpt>
      <trkpt lat="42.932174" lon="-0.283212">
        <ele>2630.7</ele>
        <time>2020-06-27T11:31:58Z</time>
      </trkpt>
      <trkpt lat="42.932118" lon="-0.283283">
        <ele>2636.0</ele>
        <time>2020-06-27T11:32:25Z</time>
      </trkpt>
      <trkpt lat="42.932055" lon="-0.283256">
        <ele>2642.7</ele>
        <time>2020-06-27T11:33:20Z</time>
      </trkpt>
      <trkpt lat="42.931994" lon="-0.283183">
        <ele>2647.8</ele>
        <time>2020-06-27T11:34:00Z</time>
      </trkpt>
      <trkpt lat="42.931931" lon="-0.283196">
        <ele>2654.6</ele>
        <time>2020-06-27T11:34:46Z</time>
      </trkpt>
      <trkpt lat="42.931865" lon="-0.283169">
        <ele>2663.9</ele>
        <time>2020-06-27T11:35:48Z</time>
      </trkpt>
      <trkpt lat="42.931803" lon="-0.283223">
        <ele>2668.8</ele>
        <time>2020-06-27T11:36:27Z</time>
      </trkpt>
      <trkpt lat="42.931696" lon="-0.283230">
        <ele>2671.4</ele>
        <time>2020-06-27T11:36:48Z</time>
      </trkpt>
      <trkpt lat="42.931629" lon="-0.283232">
        <ele>2671.5</ele>
        <time>2020-06-27T11:37:33Z</time>
      </trkpt>
      <trkpt lat="42.931556" lon="-0.283250">
        <ele>2665.9</ele>
        <time>2020-06-27T11:38:29Z</time>
      </trkpt>
      <trkpt lat="42.931494" lon="-0.283292">
        <ele>2665.2</ele>
        <time>2020-06-27T11:38:56Z</time>
      </trkpt>
      <trkpt lat="42.931426" lon="-0.283376">
        <ele>2664.4</ele>
        <time>2020-06-27T11:39:16Z</time>
      </trkpt>
      <trkpt lat="42.931360" lon="-0.283462">
        <ele>2666.9</ele>
        <time>2020-06-27T11:39:41Z</time>
      </trkpt>
      <trkpt lat="42.931306" lon="-0.283576">
        <ele>2668.9</ele>
        <time>2020-06-27T11:41:36Z</time>
      </trkpt>
      <trkpt lat="42.931272" lon="-0.283617">
        <ele>2669.1</ele>
        <time>2020-06-27T11:43:04Z</time>
      </trkpt>
      <trkpt lat="42.931197" lon="-0.283738">
        <ele>2672.0</ele>
        <time>2020-06-27T11:44:12Z</time>
      </trkpt>
      <trkpt lat="42.931120" lon="-0.283797">
        <ele>2675.6</ele>
        <time>2020-06-27T11:44:35Z</time>
      </trkpt>
      <trkpt lat="42.931041" lon="-0.283760">
        <ele>2675.5</ele>
        <time>2020-06-27T11:44:56Z</time>
      </trkpt>
      <trkpt lat="42.930957" lon="-0.283735">
        <ele>2680.9</ele>
        <time>2020-06-27T11:45:21Z</time>
      </trkpt>
      <trkpt lat="42.930936" lon="-0.283772">
        <ele>2684.6</ele>
        <time>2020-06-27T12:42:49Z</time>
      </trkpt>
      <trkpt lat="42.930875" lon="-0.283828">
        <ele>2684.5</ele>
        <time>2020-06-27T12:43:17Z</time>
      </trkpt>
      <trkpt lat="42.930828" lon="-0.283924">
        <ele>2679.4</ele>
        <time>2020-06-27T12:44:01Z</time>
      </trkpt>
      <trkpt lat="42.930773" lon="-0.284014">
        <ele>2675.9</ele>
        <time>2020-06-27T12:44:35Z</time>
      </trkpt>
      <trkpt lat="42.930726" lon="-0.284131">
        <ele>2675.9</ele>
        <time>2020-06-27T12:44:57Z</time>
      </trkpt>
      <trkpt lat="42.930691" lon="-0.284212">
        <ele>2676.0</ele>
        <time>2020-06-27T12:46:02Z</time>
      </trkpt>
      <trkpt lat="42.930645" lon="-0.284331">
        <ele>2668.1</ele>
        <time>2020-06-27T12:47:00Z</time>
      </trkpt>
      <trkpt lat="42.930574" lon="-0.284401">
        <ele>2662.8</ele>
        <time>2020-06-27T12:47:21Z</time>
      </trkpt>
      <trkpt lat="42.930525" lon="-0.284466">
        <ele>2658.8</ele>
        <time>2020-06-27T12:47:43Z</time>
      </trkpt>
      <trkpt lat="42.930460" lon="-0.284580">
        <ele>2655.9</ele>
        <time>2020-06-27T12:48:01Z</time>
      </trkpt>
      <trkpt lat="42.930401" lon="-0.284690">
        <ele>2655.9</ele>
        <time>2020-06-27T12:48:20Z</time>
      </trkpt>
      <trkpt lat="42.930353" lon="-0.284815">
        <ele>2654.1</ele>
        <time>2020-06-27T12:48:51Z</time>
      </trkpt>
      <trkpt lat="42.930291" lon="-0.284931">
        <ele>2653.3</ele>
        <time>2020-06-27T12:49:10Z</time>
      </trkpt>
      <trkpt lat="42.930245" lon="-0.285053">
        <ele>2653.2</ele>
        <time>2020-06-27T12:49:23Z</time>
      </trkpt>
      <trkpt lat="42.930193" lon="-0.285126">
        <ele>2651.6</ele>
        <time>2020-06-27T12:49:45Z</time>
      </trkpt>
      <trkpt lat="42.930125" lon="-0.285225">
        <ele>2654.8</ele>
        <time>2020-06-27T12:50:01Z</time>
      </trkpt>
      <trkpt lat="42.930066" lon="-0.285332">
        <ele>2658.5</ele>
        <time>2020-06-27T12:50:18Z</time>
      </trkpt>
      <trkpt lat="42.930016" lon="-0.285396">
        <ele>2662.2</ele>
        <time>2020-06-27T12:50:35Z</time>
      </trkpt>
      <trkpt lat="42.929987" lon="-0.285516">
        <ele>2664.8</ele>
        <time>2020-06-27T12:50:52Z</time>
      </trkpt>
      <trkpt lat="42.929975" lon="-0.285602">
        <ele>2666.4</ele>
        <time>2020-06-27T12:52:20Z</time>
      </trkpt>
      <trkpt lat="42.929901" lon="-0.285614">
        <ele>2662.0</ele>
        <time>2020-06-27T12:52:36Z</time>
      </trkpt>
      <trkpt lat="42.929835" lon="-0.285690">
        <ele>2659.3</ele>
        <time>2020-06-27T12:52:54Z</time>
      </trkpt>
      <trkpt lat="42.929761" lon="-0.285754">
        <ele>2653.5</ele>
        <time>2020-06-27T12:53:18Z</time>
      </trkpt>
      <trkpt lat="42.929714" lon="-0.285803">
        <ele>2649.0</ele>
        <time>2020-06-27T12:53:46Z</time>
      </trkpt>
      <trkpt lat="42.929672" lon="-0.285896">
        <ele>2645.3</ele>
        <time>2020-06-27T12:54:00Z</time>
      </trkpt>
      <trkpt lat="42.929659" lon="-0.286023">
        <ele>2645.5</ele>
        <time>2020-06-27T12:54:10Z</time>
      </trkpt>
      <trkpt lat="42.929661" lon="-0.286153">
        <ele>2645.6</ele>
        <time>2020-06-27T12:54:25Z</time>
      </trkpt>
      <trkpt lat="42.929644" lon="-0.286228">
        <ele>2639.3</ele>
        <time>2020-06-27T12:54:54Z</time>
      </trkpt>
      <trkpt lat="42.929568" lon="-0.286240">
        <ele>2633.3</ele>
        <time>2020-06-27T12:55:20Z</time>
      </trkpt>
      <trkpt lat="42.929544" lon="-0.286356">
        <ele>2630.6</ele>
        <time>2020-06-27T12:55:45Z</time>
      </trkpt>
      <trkpt lat="42.929511" lon="-0.286489">
        <ele>2627.4</ele>
        <time>2020-06-27T12:56:08Z</time>
      </trkpt>
      <trkpt lat="42.929485" lon="-0.286613">
        <ele>2624.2</ele>
        <time>2020-06-27T12:56:20Z</time>
      </trkpt>
      <trkpt lat="42.929444" lon="-0.286739">
        <ele>2622.6</ele>
        <time>2020-06-27T12:56:33Z</time>
      </trkpt>
      <trkpt lat="42.929417" lon="-0.286869">
        <ele>2621.7</ele>
        <time>2020-06-27T12:56:43Z</time>
      </trkpt>
      <trkpt lat="42.929386" lon="-0.287007">
        <ele>2622.5</ele>
        <time>2020-06-27T12:56:55Z</time>
      </trkpt>
      <trkpt lat="42.929351" lon="-0.287142">
        <ele>2622.4</ele>
        <time>2020-06-27T12:57:04Z</time>
      </trkpt>
      <trkpt lat="42.929308" lon="-0.287258">
        <ele>2622.4</ele>
        <time>2020-06-27T12:57:13Z</time>
      </trkpt>
      <trkpt lat="42.929299" lon="-0.287394">
        <ele>2622.5</ele>
        <time>2020-06-27T12:57:42Z</time>
      </trkpt>
      <trkpt lat="42.929300" lon="-0.287524">
        <ele>2624.1</ele>
        <time>2020-06-27T12:57:52Z</time>
      </trkpt>
      <trkpt lat="42.929270" lon="-0.287643">
        <ele>2624.1</ele>
        <time>2020-06-27T12:58:07Z</time>
      </trkpt>
      <trkpt lat="42.929259" lon="-0.287780">
        <ele>2624.0</ele>
        <time>2020-06-27T12:58:17Z</time>
      </trkpt>
      <trkpt lat="42.929235" lon="-0.287893">
        <ele>2621.6</ele>
        <time>2020-06-27T12:58:27Z</time>
      </trkpt>
      <trkpt lat="42.929225" lon="-0.288031">
        <ele>2621.7</ele>
        <time>2020-06-27T12:58:38Z</time>
      </trkpt>
      <trkpt lat="42.929236" lon="-0.288168">
        <ele>2621.8</ele>
        <time>2020-06-27T12:58:51Z</time>
      </trkpt>
      <trkpt lat="42.929260" lon="-0.288312">
        <ele>2621.8</ele>
        <time>2020-06-27T12:59:00Z</time>
      </trkpt>
      <trkpt lat="42.929256" lon="-0.288438">
        <ele>2621.8</ele>
        <time>2020-06-27T12:59:11Z</time>
      </trkpt>
      <trkpt lat="42.929263" lon="-0.288574">
        <ele>2624.0</ele>
        <time>2020-06-27T12:59:21Z</time>
      </trkpt>
      <trkpt lat="42.929247" lon="-0.288707">
        <ele>2624.0</ele>
        <time>2020-06-27T12:59:31Z</time>
      </trkpt>
      <trkpt lat="42.929227" lon="-0.288826">
        <ele>2624.0</ele>
        <time>2020-06-27T13:00:01Z</time>
      </trkpt>
      <trkpt lat="42.929246" lon="-0.288950">
        <ele>2621.6</ele>
        <time>2020-06-27T13:00:14Z</time>
      </trkpt>
      <trkpt lat="42.929258" lon="-0.289079">
        <ele>2620.1</ele>
        <time>2020-06-27T13:01:10Z</time>
      </trkpt>
      <trkpt lat="42.929272" lon="-0.289197">
        <ele>2617.5</ele>
        <time>2020-06-27T13:01:30Z</time>
      </trkpt>
      <trkpt lat="42.929280" lon="-0.289332">
        <ele>2615.8</ele>
        <time>2020-06-27T13:01:47Z</time>
      </trkpt>
      <trkpt lat="42.929279" lon="-0.289450">
        <ele>2613.9</ele>
        <time>2020-06-27T13:02:01Z</time>
      </trkpt>
      <trkpt lat="42.929276" lon="-0.289560">
        <ele>2608.8</ele>
        <time>2020-06-27T13:02:30Z</time>
      </trkpt>
      <trkpt lat="42.929267" lon="-0.289672">
        <ele>2607.9</ele>
        <time>2020-06-27T13:02:51Z</time>
      </trkpt>
      <trkpt lat="42.929265" lon="-0.289760">
        <ele>2605.4</ele>
        <time>2020-06-27T13:03:20Z</time>
      </trkpt>
      <trkpt lat="42.929250" lon="-0.289873">
        <ele>2604.7</ele>
        <time>2020-06-27T13:04:04Z</time>
      </trkpt>
      <trkpt lat="42.929255" lon="-0.290006">
        <ele>2604.7</ele>
        <time>2020-06-27T13:04:14Z</time>
      </trkpt>
      <trkpt lat="42.929272" lon="-0.290140">
        <ele>2604.7</ele>
        <time>2020-06-27T13:04:27Z</time>
      </trkpt>
      <trkpt lat="42.929281" lon="-0.290268">
        <ele>2604.8</ele>
        <time>2020-06-27T13:04:35Z</time>
      </trkpt>
      <trkpt lat="42.929304" lon="-0.290405">
        <ele>2607.1</ele>
        <time>2020-06-27T13:04:44Z</time>
      </trkpt>
      <trkpt lat="42.929338" lon="-0.290534">
        <ele>2607.1</ele>
        <time>2020-06-27T13:04:53Z</time>
      </trkpt>
      <trkpt lat="42.929353" lon="-0.290660">
        <ele>2607.9</ele>
        <time>2020-06-27T13:05:02Z</time>
      </trkpt>
      <trkpt lat="42.929397" lon="-0.290768">
        <ele>2608.7</ele>
        <time>2020-06-27T13:05:12Z</time>
      </trkpt>
      <trkpt lat="42.929443" lon="-0.290876">
        <ele>2608.7</ele>
        <time>2020-06-27T13:05:23Z</time>
      </trkpt>
      <trkpt lat="42.929474" lon="-0.291006">
        <ele>2608.7</ele>
        <time>2020-06-27T13:05:37Z</time>
      </trkpt>
      <trkpt lat="42.929521" lon="-0.291118">
        <ele>2608.6</ele>
        <time>2020-06-27T13:05:50Z</time>
      </trkpt>
      <trkpt lat="42.929570" lon="-0.291233">
        <ele>2605.4</ele>
        <time>2020-06-27T13:06:07Z</time>
      </trkpt>
      <trkpt lat="42.929621" lon="-0.291339">
        <ele>2602.5</ele>
        <time>2020-06-27T13:06:19Z</time>
      </trkpt>
      <trkpt lat="42.929658" lon="-0.291462">
        <ele>2599.9</ele>
        <time>2020-06-27T13:06:29Z</time>
      </trkpt>
      <trkpt lat="42.929691" lon="-0.291568">
        <ele>2598.2</ele>
        <time>2020-06-27T13:06:48Z</time>
      </trkpt>
      <trkpt lat="42.929730" lon="-0.291672">
        <ele>2595.3</ele>
        <time>2020-06-27T13:07:04Z</time>
      </trkpt>
      <trkpt lat="42.929773" lon="-0.291770">
        <ele>2590.8</ele>
        <time>2020-06-27T13:07:19Z</time>
      </trkpt>
      <trkpt lat="42.929820" lon="-0.291878">
        <ele>2588.8</ele>
        <time>2020-06-27T13:07:28Z</time>
      </trkpt>
      <trkpt lat="42.929877" lon="-0.291975">
        <ele>2585.8</ele>
        <time>2020-06-27T13:07:38Z</time>
      </trkpt>
      <trkpt lat="42.929932" lon="-0.292081">
        <ele>2583.2</ele>
        <time>2020-06-27T13:07:48Z</time>
      </trkpt>
      <trkpt lat="42.929986" lon="-0.292193">
        <ele>2581.6</ele>
        <time>2020-06-27T13:07:58Z</time>
      </trkpt>
      <trkpt lat="42.930033" lon="-0.292307">
        <ele>2579.8</ele>
        <time>2020-06-27T13:08:09Z</time>
      </trkpt>
      <trkpt lat="42.930057" lon="-0.292433">
        <ele>2578.1</ele>
        <time>2020-06-27T13:08:19Z</time>
      </trkpt>
      <trkpt lat="42.930120" lon="-0.292504">
        <ele>2576.3</ele>
        <time>2020-06-27T13:08:33Z</time>
      </trkpt>
      <trkpt lat="42.930161" lon="-0.292556">
        <ele>2571.6</ele>
        <time>2020-06-27T13:08:54Z</time>
      </trkpt>
      <trkpt lat="42.930130" lon="-0.292664">
        <ele>2568.4</ele>
        <time>2020-06-27T13:09:10Z</time>
      </trkpt>
      <trkpt lat="42.930181" lon="-0.292714">
        <ele>2565.0</ele>
        <time>2020-06-27T13:09:26Z</time>
      </trkpt>
      <trkpt lat="42.930188" lon="-0.292806">
        <ele>2560.3</ele>
        <time>2020-06-27T13:09:42Z</time>
      </trkpt>
      <trkpt lat="42.930126" lon="-0.292888">
        <ele>2557.4</ele>
        <time>2020-06-27T13:09:53Z</time>
      </trkpt>
      <trkpt lat="42.930169" lon="-0.292979">
        <ele>2554.3</ele>
        <time>2020-06-27T13:10:06Z</time>
      </trkpt>
      <trkpt lat="42.930207" lon="-0.293066">
        <ele>2550.7</ele>
        <time>2020-06-27T13:10:21Z</time>
      </trkpt>
      <trkpt lat="42.930233" lon="-0.293176">
        <ele>2550.9</ele>
        <time>2020-06-27T13:10:58Z</time>
      </trkpt>
      <trkpt lat="42.930255" lon="-0.293287">
        <ele>2548.6</ele>
        <time>2020-06-27T13:11:12Z</time>
      </trkpt>
      <trkpt lat="42.930283" lon="-0.293404">
        <ele>2547.8</ele>
        <time>2020-06-27T13:11:25Z</time>
      </trkpt>
      <trkpt lat="42.930212" lon="-0.293437">
        <ele>2550.9</ele>
        <time>2020-06-27T13:12:21Z</time>
      </trkpt>
      <trkpt lat="42.930162" lon="-0.293556">
        <ele>2545.8</ele>
        <time>2020-06-27T13:13:35Z</time>
      </trkpt>
      <trkpt lat="42.930162" lon="-0.293667">
        <ele>2544.9</ele>
        <time>2020-06-27T13:13:51Z</time>
      </trkpt>
      <trkpt lat="42.930200" lon="-0.293775">
        <ele>2544.1</ele>
        <time>2020-06-27T13:14:06Z</time>
      </trkpt>
      <trkpt lat="42.930199" lon="-0.293889">
        <ele>2540.9</ele>
        <time>2020-06-27T13:14:29Z</time>
      </trkpt>
      <trkpt lat="42.930235" lon="-0.293970">
        <ele>2539.4</ele>
        <time>2020-06-27T13:15:03Z</time>
      </trkpt>
      <trkpt lat="42.930189" lon="-0.294029">
        <ele>2538.7</ele>
        <time>2020-06-27T13:16:06Z</time>
      </trkpt>
      <trkpt lat="42.930217" lon="-0.294116">
        <ele>2535.9</ele>
        <time>2020-06-27T13:16:21Z</time>
      </trkpt>
      <trkpt lat="42.930222" lon="-0.294224">
        <ele>2535.9</ele>
        <time>2020-06-27T13:16:33Z</time>
      </trkpt>
      <trkpt lat="42.930242" lon="-0.294290">
        <ele>2533.4</ele>
        <time>2020-06-27T13:16:49Z</time>
      </trkpt>
      <trkpt lat="42.930314" lon="-0.294327">
        <ele>2529.6</ele>
        <time>2020-06-27T13:17:08Z</time>
      </trkpt>
      <trkpt lat="42.930345" lon="-0.294387">
        <ele>2524.9</ele>
        <time>2020-06-27T13:17:37Z</time>
      </trkpt>
      <trkpt lat="42.930369" lon="-0.294422">
        <ele>2523.9</ele>
        <time>2020-06-27T13:17:58Z</time>
      </trkpt>
      <trkpt lat="42.930431" lon="-0.294491">
        <ele>2521.1</ele>
        <time>2020-06-27T13:18:13Z</time>
      </trkpt>
      <trkpt lat="42.930465" lon="-0.294565">
        <ele>2518.3</ele>
        <time>2020-06-27T13:19:56Z</time>
      </trkpt>
      <trkpt lat="42.930511" lon="-0.294674">
        <ele>2515.8</ele>
        <time>2020-06-27T13:20:27Z</time>
      </trkpt>
      <trkpt lat="42.930574" lon="-0.294741">
        <ele>2513.0</ele>
        <time>2020-06-27T13:20:41Z</time>
      </trkpt>
      <trkpt lat="42.930643" lon="-0.294799">
        <ele>2508.0</ele>
        <time>2020-06-27T13:20:56Z</time>
      </trkpt>
      <trkpt lat="42.930706" lon="-0.294879">
        <ele>2504.5</ele>
        <time>2020-06-27T13:21:12Z</time>
      </trkpt>
      <trkpt lat="42.930787" lon="-0.294949">
        <ele>2501.8</ele>
        <time>2020-06-27T13:21:36Z</time>
      </trkpt>
      <trkpt lat="42.930856" lon="-0.295006">
        <ele>2498.9</ele>
        <time>2020-06-27T13:22:03Z</time>
      </trkpt>
      <trkpt lat="42.930919" lon="-0.295087">
        <ele>2497.0</ele>
        <time>2020-06-27T13:22:38Z</time>
      </trkpt>
      <trkpt lat="42.930984" lon="-0.295168">
        <ele>2497.0</ele>
        <time>2020-06-27T13:23:03Z</time>
      </trkpt>
      <trkpt lat="42.931072" lon="-0.295205">
        <ele>2493.5</ele>
        <time>2020-06-27T13:23:23Z</time>
      </trkpt>
      <trkpt lat="42.931150" lon="-0.295213">
        <ele>2491.9</ele>
        <time>2020-06-27T13:23:44Z</time>
      </trkpt>
      <trkpt lat="42.931229" lon="-0.295194">
        <ele>2486.6</ele>
        <time>2020-06-27T13:24:04Z</time>
      </trkpt>
      <trkpt lat="42.931302" lon="-0.295259">
        <ele>2483.4</ele>
        <time>2020-06-27T13:24:24Z</time>
      </trkpt>
      <trkpt lat="42.931376" lon="-0.295352">
        <ele>2483.4</ele>
        <time>2020-06-27T13:24:40Z</time>
      </trkpt>
      <trkpt lat="42.931418" lon="-0.295367">
        <ele>2483.3</ele>
        <time>2020-06-27T13:25:08Z</time>
      </trkpt>
      <trkpt lat="42.931507" lon="-0.295397">
        <ele>2483.2</ele>
        <time>2020-06-27T13:25:20Z</time>
      </trkpt>
      <trkpt lat="42.931610" lon="-0.295396">
        <ele>2481.6</ele>
        <time>2020-06-27T13:25:32Z</time>
      </trkpt>
      <trkpt lat="42.931693" lon="-0.295422">
        <ele>2479.0</ele>
        <time>2020-06-27T13:25:46Z</time>
      </trkpt>
      <trkpt lat="42.931776" lon="-0.295482">
        <ele>2478.0</ele>
        <time>2020-06-27T13:26:02Z</time>
      </trkpt>
      <trkpt lat="42.931868" lon="-0.295430">
        <ele>2473.7</ele>
        <time>2020-06-27T13:27:01Z</time>
      </trkpt>
      <trkpt lat="42.931921" lon="-0.295353">
        <ele>2469.0</ele>
        <time>2020-06-27T13:27:16Z</time>
      </trkpt>
      <trkpt lat="42.931964" lon="-0.295226">
        <ele>2464.3</ele>
        <time>2020-06-27T13:27:32Z</time>
      </trkpt>
      <trkpt lat="42.931947" lon="-0.295114">
        <ele>2460.3</ele>
        <time>2020-06-27T13:27:44Z</time>
      </trkpt>
      <trkpt lat="42.931956" lon="-0.294963">
        <ele>2455.1</ele>
        <time>2020-06-27T13:27:55Z</time>
      </trkpt>
      <trkpt lat="42.931998" lon="-0.294850">
        <ele>2452.1</ele>
        <time>2020-06-27T13:28:01Z</time>
      </trkpt>
      <trkpt lat="42.932036" lon="-0.294725">
        <ele>2450.2</ele>
        <time>2020-06-27T13:28:10Z</time>
      </trkpt>
      <trkpt lat="42.932105" lon="-0.294638">
        <ele>2448.4</ele>
        <time>2020-06-27T13:28:22Z</time>
      </trkpt>
      <trkpt lat="42.932129" lon="-0.294476">
        <ele>2440.6</ele>
        <time>2020-06-27T13:28:50Z</time>
      </trkpt>
      <trkpt lat="42.932137" lon="-0.294366">
        <ele>2438.6</ele>
        <time>2020-06-27T13:28:58Z</time>
      </trkpt>
      <trkpt lat="42.932206" lon="-0.294280">
        <ele>2436.5</ele>
        <time>2020-06-27T13:29:06Z</time>
      </trkpt>
      <trkpt lat="42.932256" lon="-0.294171">
        <ele>2434.9</ele>
        <time>2020-06-27T13:29:17Z</time>
      </trkpt>
      <trkpt lat="42.932240" lon="-0.294056">
        <ele>2431.8</ele>
        <time>2020-06-27T13:29:31Z</time>
      </trkpt>
      <trkpt lat="42.932205" lon="-0.293943">
        <ele>2429.5</ele>
        <time>2020-06-27T13:29:44Z</time>
      </trkpt>
      <trkpt lat="42.932210" lon="-0.293812">
        <ele>2427.7</ele>
        <time>2020-06-27T13:29:52Z</time>
      </trkpt>
      <trkpt lat="42.932216" lon="-0.293685">
        <ele>2426.0</ele>
        <time>2020-06-27T13:30:01Z</time>
      </trkpt>
      <trkpt lat="42.932230" lon="-0.293566">
        <ele>2424.4</ele>
        <time>2020-06-27T13:30:09Z</time>
      </trkpt>
      <trkpt lat="42.932252" lon="-0.293435">
        <ele>2421.1</ele>
        <time>2020-06-27T13:30:18Z</time>
      </trkpt>
      <trkpt lat="42.932289" lon="-0.293322">
        <ele>2417.0</ele>
        <time>2020-06-27T13:30:28Z</time>
      </trkpt>
      <trkpt lat="42.932311" lon="-0.293231">
        <ele>2412.4</ele>
        <time>2020-06-27T13:30:50Z</time>
      </trkpt>
      <trkpt lat="42.932329" lon="-0.293141">
        <ele>2409.2</ele>
        <time>2020-06-27T13:31:01Z</time>
      </trkpt>
      <trkpt lat="42.932368" lon="-0.293075">
        <ele>2405.6</ele>
        <time>2020-06-27T13:31:22Z</time>
      </trkpt>
      <trkpt lat="42.932394" lon="-0.292969">
        <ele>2400.3</ele>
        <time>2020-06-27T13:31:41Z</time>
      </trkpt>
      <trkpt lat="42.932458" lon="-0.292890">
        <ele>2396.9</ele>
        <time>2020-06-27T13:31:54Z</time>
      </trkpt>
      <trkpt lat="42.932503" lon="-0.292785">
        <ele>2391.3</ele>
        <time>2020-06-27T13:32:08Z</time>
      </trkpt>
      <trkpt lat="42.932442" lon="-0.292680">
        <ele>2387.3</ele>
        <time>2020-06-27T13:32:20Z</time>
      </trkpt>
      <trkpt lat="42.932461" lon="-0.292540">
        <ele>2382.1</ele>
        <time>2020-06-27T13:32:26Z</time>
      </trkpt>
      <trkpt lat="42.932517" lon="-0.292411">
        <ele>2378.1</ele>
        <time>2020-06-27T13:32:35Z</time>
      </trkpt>
      <trkpt lat="42.932581" lon="-0.292297">
        <ele>2373.8</ele>
        <time>2020-06-27T13:32:44Z</time>
      </trkpt>
      <trkpt lat="42.932605" lon="-0.292184">
        <ele>2371.5</ele>
        <time>2020-06-27T13:33:04Z</time>
      </trkpt>
      <trkpt lat="42.932668" lon="-0.292097">
        <ele>2369.4</ele>
        <time>2020-06-27T13:33:37Z</time>
      </trkpt>
      <trkpt lat="42.932686" lon="-0.291992">
        <ele>2366.2</ele>
        <time>2020-06-27T13:33:52Z</time>
      </trkpt>
      <trkpt lat="42.932729" lon="-0.291915">
        <ele>2360.5</ele>
        <time>2020-06-27T13:34:09Z</time>
      </trkpt>
      <trkpt lat="42.932824" lon="-0.291945">
        <ele>2356.3</ele>
        <time>2020-06-27T13:34:25Z</time>
      </trkpt>
      <trkpt lat="42.932872" lon="-0.291899">
        <ele>2351.2</ele>
        <time>2020-06-27T13:34:47Z</time>
      </trkpt>
      <trkpt lat="42.932924" lon="-0.291840">
        <ele>2351.1</ele>
        <time>2020-06-27T13:35:43Z</time>
      </trkpt>
      <trkpt lat="42.932973" lon="-0.291722">
        <ele>2348.5</ele>
        <time>2020-06-27T13:35:55Z</time>
      </trkpt>
      <trkpt lat="42.933029" lon="-0.291615">
        <ele>2346.1</ele>
        <time>2020-06-27T13:36:07Z</time>
      </trkpt>
      <trkpt lat="42.933114" lon="-0.291575">
        <ele>2342.4</ele>
        <time>2020-06-27T13:36:18Z</time>
      </trkpt>
      <trkpt lat="42.933202" lon="-0.291566">
        <ele>2338.7</ele>
        <time>2020-06-27T13:36:29Z</time>
      </trkpt>
      <trkpt lat="42.933249" lon="-0.291478">
        <ele>2335.9</ele>
        <time>2020-06-27T13:36:42Z</time>
      </trkpt>
      <trkpt lat="42.933328" lon="-0.291422">
        <ele>2333.2</ele>
        <time>2020-06-27T13:36:54Z</time>
      </trkpt>
      <trkpt lat="42.933401" lon="-0.291420">
        <ele>2328.8</ele>
        <time>2020-06-27T13:37:18Z</time>
      </trkpt>
      <trkpt lat="42.933466" lon="-0.291336">
        <ele>2325.3</ele>
        <time>2020-06-27T13:37:47Z</time>
      </trkpt>
      <trkpt lat="42.933508" lon="-0.291228">
        <ele>2322.5</ele>
        <time>2020-06-27T13:37:59Z</time>
      </trkpt>
      <trkpt lat="42.933567" lon="-0.291157">
        <ele>2320.9</ele>
        <time>2020-06-27T13:38:10Z</time>
      </trkpt>
      <trkpt lat="42.933630" lon="-0.291118">
        <ele>2317.0</ele>
        <time>2020-06-27T13:38:25Z</time>
      </trkpt>
      <trkpt lat="42.933671" lon="-0.291062">
        <ele>2310.9</ele>
        <time>2020-06-27T13:38:42Z</time>
      </trkpt>
      <trkpt lat="42.933651" lon="-0.290920">
        <ele>2308.4</ele>
        <time>2020-06-27T13:38:57Z</time>
      </trkpt>
      <trkpt lat="42.933687" lon="-0.290810">
        <ele>2306.6</ele>
        <time>2020-06-27T13:39:11Z</time>
      </trkpt>
      <trkpt lat="42.933746" lon="-0.290721">
        <ele>2303.1</ele>
        <time>2020-06-27T13:39:22Z</time>
      </trkpt>
      <trkpt lat="42.933818" lon="-0.290652">
        <ele>2300.4</ele>
        <time>2020-06-27T13:39:32Z</time>
      </trkpt>
      <trkpt lat="42.933902" lon="-0.290589">
        <ele>2298.4</ele>
        <time>2020-06-27T13:39:42Z</time>
      </trkpt>
      <trkpt lat="42.933948" lon="-0.290583">
        <ele>2295.4</ele>
        <time>2020-06-27T13:41:52Z</time>
      </trkpt>
      <trkpt lat="42.934004" lon="-0.290467">
        <ele>2293.7</ele>
        <time>2020-06-27T13:42:05Z</time>
      </trkpt>
      <trkpt lat="42.934062" lon="-0.290365">
        <ele>2291.7</ele>
        <time>2020-06-27T13:42:17Z</time>
      </trkpt>
      <trkpt lat="42.934118" lon="-0.290253">
        <ele>2289.6</ele>
        <time>2020-06-27T13:42:27Z</time>
      </trkpt>
      <trkpt lat="42.934170" lon="-0.290143">
        <ele>2286.8</ele>
        <time>2020-06-27T13:42:37Z</time>
      </trkpt>
      <trkpt lat="42.934254" lon="-0.290074">
        <ele>2283.9</ele>
        <time>2020-06-27T13:42:46Z</time>
      </trkpt>
      <trkpt lat="42.934344" lon="-0.290049">
        <ele>2280.4</ele>
        <time>2020-06-27T13:42:56Z</time>
      </trkpt>
      <trkpt lat="42.934428" lon="-0.290006">
        <ele>2276.7</ele>
        <time>2020-06-27T13:43:07Z</time>
      </trkpt>
      <trkpt lat="42.934510" lon="-0.289977">
        <ele>2273.8</ele>
        <time>2020-06-27T13:43:29Z</time>
      </trkpt>
      <trkpt lat="42.934598" lon="-0.289941">
        <ele>2269.9</ele>
        <time>2020-06-27T13:43:36Z</time>
      </trkpt>
      <trkpt lat="42.934679" lon="-0.289903">
        <ele>2266.1</ele>
        <time>2020-06-27T13:43:43Z</time>
      </trkpt>
      <trkpt lat="42.934771" lon="-0.289854">
        <ele>2260.6</ele>
        <time>2020-06-27T13:43:51Z</time>
      </trkpt>
      <trkpt lat="42.934871" lon="-0.289821">
        <ele>2257.2</ele>
        <time>2020-06-27T13:43:58Z</time>
      </trkpt>
      <trkpt lat="42.934958" lon="-0.289760">
        <ele>2252.9</ele>
        <time>2020-06-27T13:44:05Z</time>
      </trkpt>
      <trkpt lat="42.935016" lon="-0.289670">
        <ele>2250.3</ele>
        <time>2020-06-27T13:44:14Z</time>
      </trkpt>
      <trkpt lat="42.935062" lon="-0.289561">
        <ele>2245.6</ele>
        <time>2020-06-27T13:44:24Z</time>
      </trkpt>
      <trkpt lat="42.935121" lon="-0.289468">
        <ele>2241.1</ele>
        <time>2020-06-27T13:44:32Z</time>
      </trkpt>
      <trkpt lat="42.935160" lon="-0.289392">
        <ele>2237.3</ele>
        <time>2020-06-27T13:45:13Z</time>
      </trkpt>
      <trkpt lat="42.935220" lon="-0.289326">
        <ele>2234.5</ele>
        <time>2020-06-27T13:45:35Z</time>
      </trkpt>
      <trkpt lat="42.935273" lon="-0.289250">
        <ele>2229.2</ele>
        <time>2020-06-27T13:46:00Z</time>
      </trkpt>
      <trkpt lat="42.935322" lon="-0.289124">
        <ele>2226.4</ele>
        <time>2020-06-27T13:46:12Z</time>
      </trkpt>
      <trkpt lat="42.935396" lon="-0.289059">
        <ele>2225.5</ele>
        <time>2020-06-27T13:46:27Z</time>
      </trkpt>
      <trkpt lat="42.935471" lon="-0.288999">
        <ele>2224.7</ele>
        <time>2020-06-27T13:46:38Z</time>
      </trkpt>
      <trkpt lat="42.935532" lon="-0.288910">
        <ele>2223.0</ele>
        <time>2020-06-27T13:46:48Z</time>
      </trkpt>
      <trkpt lat="42.935622" lon="-0.288841">
        <ele>2221.3</ele>
        <time>2020-06-27T13:47:24Z</time>
      </trkpt>
      <trkpt lat="42.935709" lon="-0.288778">
        <ele>2219.5</ele>
        <time>2020-06-27T13:47:34Z</time>
      </trkpt>
      <trkpt lat="42.935782" lon="-0.288700">
        <ele>2217.7</ele>
        <time>2020-06-27T13:47:45Z</time>
      </trkpt>
      <trkpt lat="42.935850" lon="-0.288619">
        <ele>2215.9</ele>
        <time>2020-06-27T13:47:54Z</time>
      </trkpt>
      <trkpt lat="42.935910" lon="-0.288532">
        <ele>2215.1</ele>
        <time>2020-06-27T13:48:06Z</time>
      </trkpt>
      <trkpt lat="42.935957" lon="-0.288461">
        <ele>2213.3</ele>
        <time>2020-06-27T13:48:44Z</time>
      </trkpt>
      <trkpt lat="42.935998" lon="-0.288434">
        <ele>2211.0</ele>
        <time>2020-06-27T13:53:24Z</time>
      </trkpt>
      <trkpt lat="42.936058" lon="-0.288370">
        <ele>2209.9</ele>
        <time>2020-06-27T13:54:26Z</time>
      </trkpt>
      <trkpt lat="42.936121" lon="-0.288278">
        <ele>2208.1</ele>
        <time>2020-06-27T13:54:35Z</time>
      </trkpt>
      <trkpt lat="42.936188" lon="-0.288190">
        <ele>2207.1</ele>
        <time>2020-06-27T13:54:43Z</time>
      </trkpt>
      <trkpt lat="42.936280" lon="-0.288105">
        <ele>2204.6</ele>
        <time>2020-06-27T13:54:53Z</time>
      </trkpt>
      <trkpt lat="42.936366" lon="-0.288049">
        <ele>2202.8</ele>
        <time>2020-06-27T13:55:03Z</time>
      </trkpt>
      <trkpt lat="42.936448" lon="-0.287980">
        <ele>2201.9</ele>
        <time>2020-06-27T13:55:11Z</time>
      </trkpt>
      <trkpt lat="42.936532" lon="-0.287938">
        <ele>2201.0</ele>
        <time>2020-06-27T13:55:19Z</time>
      </trkpt>
      <trkpt lat="42.936622" lon="-0.287885">
        <ele>2200.2</ele>
        <time>2020-06-27T13:55:29Z</time>
      </trkpt>
      <trkpt lat="42.936713" lon="-0.287831">
        <ele>2198.2</ele>
        <time>2020-06-27T13:55:36Z</time>
      </trkpt>
      <trkpt lat="42.936812" lon="-0.287774">
        <ele>2196.3</ele>
        <time>2020-06-27T13:55:43Z</time>
      </trkpt>
      <trkpt lat="42.936907" lon="-0.287747">
        <ele>2194.1</ele>
        <time>2020-06-27T13:55:49Z</time>
      </trkpt>
      <trkpt lat="42.936990" lon="-0.287689">
        <ele>2191.3</ele>
        <time>2020-06-27T13:55:56Z</time>
      </trkpt>
      <trkpt lat="42.937088" lon="-0.287650">
        <ele>2187.7</ele>
        <time>2020-06-27T13:56:04Z</time>
      </trkpt>
      <trkpt lat="42.937191" lon="-0.287614">
        <ele>2184.7</ele>
        <time>2020-06-27T13:56:11Z</time>
      </trkpt>
      <trkpt lat="42.937289" lon="-0.287588">
        <ele>2181.7</ele>
        <time>2020-06-27T13:56:17Z</time>
      </trkpt>
      <trkpt lat="42.937390" lon="-0.287580">
        <ele>2178.0</ele>
        <time>2020-06-27T13:56:23Z</time>
      </trkpt>
      <trkpt lat="42.937475" lon="-0.287528">
        <ele>2173.9</ele>
        <time>2020-06-27T13:56:30Z</time>
      </trkpt>
      <trkpt lat="42.937548" lon="-0.287463">
        <ele>2170.6</ele>
        <time>2020-06-27T13:56:37Z</time>
      </trkpt>
      <trkpt lat="42.937637" lon="-0.287392">
        <ele>2167.7</ele>
        <time>2020-06-27T13:56:45Z</time>
      </trkpt>
      <trkpt lat="42.937722" lon="-0.287339">
        <ele>2164.7</ele>
        <time>2020-06-27T13:56:52Z</time>
      </trkpt>
      <trkpt lat="42.937828" lon="-0.287382">
        <ele>2160.2</ele>
        <time>2020-06-27T13:56:59Z</time>
      </trkpt>
      <trkpt lat="42.937929" lon="-0.287380">
        <ele>2157.3</ele>
        <time>2020-06-27T13:57:05Z</time>
      </trkpt>
      <trkpt lat="42.938028" lon="-0.287382">
        <ele>2153.1</ele>
        <time>2020-06-27T13:57:13Z</time>
      </trkpt>
      <trkpt lat="42.938104" lon="-0.287448">
        <ele>2149.4</ele>
        <time>2020-06-27T13:57:22Z</time>
      </trkpt>
      <trkpt lat="42.938203" lon="-0.287517">
        <ele>2146.4</ele>
        <time>2020-06-27T13:57:31Z</time>
      </trkpt>
      <trkpt lat="42.938295" lon="-0.287517">
        <ele>2142.3</ele>
        <time>2020-06-27T13:57:41Z</time>
      </trkpt>
      <trkpt lat="42.938390" lon="-0.287513">
        <ele>2138.6</ele>
        <time>2020-06-27T13:57:52Z</time>
      </trkpt>
      <trkpt lat="42.938480" lon="-0.287542">
        <ele>2136.2</ele>
        <time>2020-06-27T13:58:01Z</time>
      </trkpt>
      <trkpt lat="42.938578" lon="-0.287587">
        <ele>2132.9</ele>
        <time>2020-06-27T13:58:11Z</time>
      </trkpt>
      <trkpt lat="42.938680" lon="-0.287663">
        <ele>2131.1</ele>
        <time>2020-06-27T13:58:22Z</time>
      </trkpt>
      <trkpt lat="42.938788" lon="-0.287692">
        <ele>2128.3</ele>
        <time>2020-06-27T13:58:30Z</time>
      </trkpt>
      <trkpt lat="42.938886" lon="-0.287671">
        <ele>2126.3</ele>
        <time>2020-06-27T13:58:35Z</time>
      </trkpt>
      <trkpt lat="42.938978" lon="-0.287627">
        <ele>2122.4</ele>
        <time>2020-06-27T13:58:44Z</time>
      </trkpt>
      <trkpt lat="42.939064" lon="-0.287572">
        <ele>2120.6</ele>
        <time>2020-06-27T13:58:54Z</time>
      </trkpt>
      <trkpt lat="42.939156" lon="-0.287518">
        <ele>2119.8</ele>
        <time>2020-06-27T13:59:04Z</time>
      </trkpt>
      <trkpt lat="42.939251" lon="-0.287516">
        <ele>2117.1</ele>
        <time>2020-06-27T13:59:14Z</time>
      </trkpt>
      <trkpt lat="42.939345" lon="-0.287478">
        <ele>2113.1</ele>
        <time>2020-06-27T14:00:52Z</time>
      </trkpt>
      <trkpt lat="42.939436" lon="-0.287463">
        <ele>2111.4</ele>
        <time>2020-06-27T14:01:02Z</time>
      </trkpt>
      <trkpt lat="42.939539" lon="-0.287461">
        <ele>2108.6</ele>
        <time>2020-06-27T14:01:11Z</time>
      </trkpt>
      <trkpt lat="42.939631" lon="-0.287484">
        <ele>2107.5</ele>
        <time>2020-06-27T14:01:20Z</time>
      </trkpt>
      <trkpt lat="42.939715" lon="-0.287545">
        <ele>2106.5</ele>
        <time>2020-06-27T14:01:30Z</time>
      </trkpt>
      <trkpt lat="42.939814" lon="-0.287513">
        <ele>2104.9</ele>
        <time>2020-06-27T14:01:39Z</time>
      </trkpt>
      <trkpt lat="42.939903" lon="-0.287555">
        <ele>2102.9</ele>
        <time>2020-06-27T14:01:49Z</time>
      </trkpt>
      <trkpt lat="42.939959" lon="-0.287658">
        <ele>2102.1</ele>
        <time>2020-06-27T14:02:00Z</time>
      </trkpt>
      <trkpt lat="42.939998" lon="-0.287776">
        <ele>2102.1</ele>
        <time>2020-06-27T14:02:10Z</time>
      </trkpt>
      <trkpt lat="42.940079" lon="-0.287861">
        <ele>2102.1</ele>
        <time>2020-06-27T14:02:21Z</time>
      </trkpt>
      <trkpt lat="42.940100" lon="-0.287970">
        <ele>2102.0</ele>
        <time>2020-06-27T14:02:51Z</time>
      </trkpt>
      <trkpt lat="42.940184" lon="-0.288003">
        <ele>2098.6</ele>
        <time>2020-06-27T14:03:07Z</time>
      </trkpt>
      <trkpt lat="42.940284" lon="-0.288012">
        <ele>2095.9</ele>
        <time>2020-06-27T14:03:20Z</time>
      </trkpt>
      <trkpt lat="42.940370" lon="-0.288037">
        <ele>2093.0</ele>
        <time>2020-06-27T14:03:35Z</time>
      </trkpt>
      <trkpt lat="42.940451" lon="-0.288067">
        <ele>2088.6</ele>
        <time>2020-06-27T14:03:56Z</time>
      </trkpt>
      <trkpt lat="42.940520" lon="-0.288089">
        <ele>2085.1</ele>
        <time>2020-06-27T14:04:10Z</time>
      </trkpt>
      <trkpt lat="42.940590" lon="-0.288127">
        <ele>2079.9</ele>
        <time>2020-06-27T14:04:29Z</time>
      </trkpt>
      <trkpt lat="42.940687" lon="-0.288112">
        <ele>2076.1</ele>
        <time>2020-06-27T14:04:41Z</time>
      </trkpt>
      <trkpt lat="42.940763" lon="-0.288115">
        <ele>2073.2</ele>
        <time>2020-06-27T14:05:02Z</time>
      </trkpt>
      <trkpt lat="42.940859" lon="-0.288115">
        <ele>2071.2</ele>
        <time>2020-06-27T14:05:14Z</time>
      </trkpt>
      <trkpt lat="42.940944" lon="-0.288101">
        <ele>2069.3</ele>
        <time>2020-06-27T14:05:24Z</time>
      </trkpt>
      <trkpt lat="42.941053" lon="-0.288122">
        <ele>2066.1</ele>
        <time>2020-06-27T14:05:35Z</time>
      </trkpt>
      <trkpt lat="42.941133" lon="-0.288167">
        <ele>2065.4</ele>
        <time>2020-06-27T14:05:46Z</time>
      </trkpt>
      <trkpt lat="42.941189" lon="-0.288271">
        <ele>2063.7</ele>
        <time>2020-06-27T14:05:56Z</time>
      </trkpt>
      <trkpt lat="42.941256" lon="-0.288367">
        <ele>2060.7</ele>
        <time>2020-06-27T14:06:07Z</time>
      </trkpt>
      <trkpt lat="42.941335" lon="-0.288438">
        <ele>2057.0</ele>
        <time>2020-06-27T14:06:18Z</time>
      </trkpt>
      <trkpt lat="42.941422" lon="-0.288482">
        <ele>2054.4</ele>
        <time>2020-06-27T14:06:27Z</time>
      </trkpt>
      <trkpt lat="42.941509" lon="-0.288530">
        <ele>2051.8</ele>
        <time>2020-06-27T14:06:36Z</time>
      </trkpt>
      <trkpt lat="42.941605" lon="-0.288563">
        <ele>2048.1</ele>
        <time>2020-06-27T14:06:47Z</time>
      </trkpt>
      <trkpt lat="42.941706" lon="-0.288599">
        <ele>2044.6</ele>
        <time>2020-06-27T14:06:56Z</time>
      </trkpt>
      <trkpt lat="42.941798" lon="-0.288651">
        <ele>2042.2</ele>
        <time>2020-06-27T14:07:05Z</time>
      </trkpt>
      <trkpt lat="42.941899" lon="-0.288684">
        <ele>2040.6</ele>
        <time>2020-06-27T14:07:14Z</time>
      </trkpt>
      <trkpt lat="42.941997" lon="-0.288683">
        <ele>2037.6</ele>
        <time>2020-06-27T14:07:44Z</time>
      </trkpt>
      <trkpt lat="42.942078" lon="-0.288763">
        <ele>2034.6</ele>
        <time>2020-06-27T14:07:57Z</time>
      </trkpt>
      <trkpt lat="42.942135" lon="-0.288789">
        <ele>2030.0</ele>
        <time>2020-06-27T14:08:11Z</time>
      </trkpt>
      <trkpt lat="42.942234" lon="-0.288847">
        <ele>2024.7</ele>
        <time>2020-06-27T14:08:25Z</time>
      </trkpt>
      <trkpt lat="42.942335" lon="-0.288876">
        <ele>2021.2</ele>
        <time>2020-06-27T14:08:38Z</time>
      </trkpt>
      <trkpt lat="42.942421" lon="-0.288911">
        <ele>2017.5</ele>
        <time>2020-06-27T14:08:52Z</time>
      </trkpt>
      <trkpt lat="42.942492" lon="-0.289011">
        <ele>2012.5</ele>
        <time>2020-06-27T14:09:08Z</time>
      </trkpt>
      <trkpt lat="42.942579" lon="-0.289106">
        <ele>2009.4</ele>
        <time>2020-06-27T14:09:20Z</time>
      </trkpt>
      <trkpt lat="42.942680" lon="-0.289155">
        <ele>2004.8</ele>
        <time>2020-06-27T14:09:32Z</time>
      </trkpt>
      <trkpt lat="42.942792" lon="-0.289201">
        <ele>2002.2</ele>
        <time>2020-06-27T14:09:41Z</time>
      </trkpt>
      <trkpt lat="42.942881" lon="-0.289277">
        <ele>1999.5</ele>
        <time>2020-06-27T14:09:49Z</time>
      </trkpt>
      <trkpt lat="42.942966" lon="-0.289343">
        <ele>1996.5</ele>
        <time>2020-06-27T14:09:57Z</time>
      </trkpt>
      <trkpt lat="42.943047" lon="-0.289393">
        <ele>1994.9</ele>
        <time>2020-06-27T14:10:04Z</time>
      </trkpt>
      <trkpt lat="42.943132" lon="-0.289436">
        <ele>1993.4</ele>
        <time>2020-06-27T14:10:13Z</time>
      </trkpt>
      <trkpt lat="42.943223" lon="-0.289487">
        <ele>1992.5</ele>
        <time>2020-06-27T14:10:21Z</time>
      </trkpt>
      <trkpt lat="42.943316" lon="-0.289502">
        <ele>1991.5</ele>
        <time>2020-06-27T14:10:29Z</time>
      </trkpt>
      <trkpt lat="42.943402" lon="-0.289528">
        <ele>1988.8</ele>
        <time>2020-06-27T14:10:37Z</time>
      </trkpt>
      <trkpt lat="42.943492" lon="-0.289550">
        <ele>1986.6</ele>
        <time>2020-06-27T14:10:48Z</time>
      </trkpt>
      <trkpt lat="42.943584" lon="-0.289552">
        <ele>1985.9</ele>
        <time>2020-06-27T14:10:57Z</time>
      </trkpt>
      <trkpt lat="42.943674" lon="-0.289589">
        <ele>1983.0</ele>
        <time>2020-06-27T14:11:05Z</time>
      </trkpt>
      <trkpt lat="42.943769" lon="-0.289629">
        <ele>1981.3</ele>
        <time>2020-06-27T14:11:13Z</time>
      </trkpt>
      <trkpt lat="42.943860" lon="-0.289673">
        <ele>1980.5</ele>
        <time>2020-06-27T14:11:21Z</time>
      </trkpt>
      <trkpt lat="42.943946" lon="-0.289726">
        <ele>1980.5</ele>
        <time>2020-06-27T14:11:28Z</time>
      </trkpt>
      <trkpt lat="42.944046" lon="-0.289748">
        <ele>1979.7</ele>
        <time>2020-06-27T14:11:36Z</time>
      </trkpt>
      <trkpt lat="42.944143" lon="-0.289758">
        <ele>1978.9</ele>
        <time>2020-06-27T14:11:45Z</time>
      </trkpt>
      <trkpt lat="42.944245" lon="-0.289753">
        <ele>1977.0</ele>
        <time>2020-06-27T14:11:54Z</time>
      </trkpt>
      <trkpt lat="42.944333" lon="-0.289740">
        <ele>1977.0</ele>
        <time>2020-06-27T14:12:04Z</time>
      </trkpt>
      <trkpt lat="42.944366" lon="-0.289713">
        <ele>1976.1</ele>
        <time>2020-06-27T14:12:27Z</time>
      </trkpt>
      <trkpt lat="42.944441" lon="-0.289652">
        <ele>1976.1</ele>
        <time>2020-06-27T14:12:38Z</time>
      </trkpt>
      <trkpt lat="42.944530" lon="-0.289614">
        <ele>1976.0</ele>
        <time>2020-06-27T14:12:48Z</time>
      </trkpt>
      <trkpt lat="42.944630" lon="-0.289633">
        <ele>1976.0</ele>
        <time>2020-06-27T14:12:57Z</time>
      </trkpt>
      <trkpt lat="42.944728" lon="-0.289693">
        <ele>1975.9</ele>
        <time>2020-06-27T14:13:24Z</time>
      </trkpt>
      <trkpt lat="42.944768" lon="-0.289698">
        <ele>1975.5</ele>
        <time>2020-06-27T14:14:44Z</time>
      </trkpt>
      <trkpt lat="42.944791" lon="-0.289657">
        <ele>1975.3</ele>
        <time>2020-06-27T14:15:27Z</time>
      </trkpt>
      <trkpt lat="42.944824" lon="-0.289564">
        <ele>1974.9</ele>
        <time>2020-06-27T14:16:41Z</time>
      </trkpt>
      <trkpt lat="42.944869" lon="-0.289475">
        <ele>1973.0</ele>
        <time>2020-06-27T14:16:50Z</time>
      </trkpt>
      <trkpt lat="42.944913" lon="-0.289365">
        <ele>1971.9</ele>
        <time>2020-06-27T14:16:59Z</time>
      </trkpt>
      <trkpt lat="42.944958" lon="-0.289284">
        <ele>1970.3</ele>
        <time>2020-06-27T14:18:09Z</time>
      </trkpt>
      <trkpt lat="42.945026" lon="-0.289191">
        <ele>1970.2</ele>
        <time>2020-06-27T14:18:19Z</time>
      </trkpt>
      <trkpt lat="42.945104" lon="-0.289119">
        <ele>1970.2</ele>
        <time>2020-06-27T14:18:29Z</time>
      </trkpt>
      <trkpt lat="42.945159" lon="-0.289014">
        <ele>1970.1</ele>
        <time>2020-06-27T14:18:44Z</time>
      </trkpt>
      <trkpt lat="42.945217" lon="-0.288919">
        <ele>1970.0</ele>
        <time>2020-06-27T14:18:53Z</time>
      </trkpt>
      <trkpt lat="42.945295" lon="-0.288839">
        <ele>1969.9</ele>
        <time>2020-06-27T14:19:02Z</time>
      </trkpt>
      <trkpt lat="42.945364" lon="-0.288734">
        <ele>1969.9</ele>
        <time>2020-06-27T14:19:11Z</time>
      </trkpt>
      <trkpt lat="42.945403" lon="-0.288619">
        <ele>1969.8</ele>
        <time>2020-06-27T14:19:20Z</time>
      </trkpt>
      <trkpt lat="42.945449" lon="-0.288500">
        <ele>1967.9</ele>
        <time>2020-06-27T14:19:30Z</time>
      </trkpt>
      <trkpt lat="42.945496" lon="-0.288384">
        <ele>1965.9</ele>
        <time>2020-06-27T14:19:41Z</time>
      </trkpt>
      <trkpt lat="42.945507" lon="-0.288258">
        <ele>1963.0</ele>
        <time>2020-06-27T14:19:51Z</time>
      </trkpt>
      <trkpt lat="42.945528" lon="-0.288132">
        <ele>1962.1</ele>
        <time>2020-06-27T14:20:01Z</time>
      </trkpt>
      <trkpt lat="42.945583" lon="-0.288035">
        <ele>1959.5</ele>
        <time>2020-06-27T14:20:12Z</time>
      </trkpt>
      <trkpt lat="42.945573" lon="-0.287911">
        <ele>1956.7</ele>
        <time>2020-06-27T14:20:22Z</time>
      </trkpt>
      <trkpt lat="42.945552" lon="-0.287782">
        <ele>1953.9</ele>
        <time>2020-06-27T14:20:32Z</time>
      </trkpt>
      <trkpt lat="42.945565" lon="-0.287663">
        <ele>1950.6</ele>
        <time>2020-06-27T14:20:45Z</time>
      </trkpt>
      <trkpt lat="42.945570" lon="-0.287527">
        <ele>1948.9</ele>
        <time>2020-06-27T14:20:55Z</time>
      </trkpt>
      <trkpt lat="42.945597" lon="-0.287392">
        <ele>1948.9</ele>
        <time>2020-06-27T14:21:04Z</time>
      </trkpt>
      <trkpt lat="42.945574" lon="-0.287266">
        <ele>1948.9</ele>
        <time>2020-06-27T14:21:15Z</time>
      </trkpt>
      <trkpt lat="42.945551" lon="-0.287131">
        <ele>1947.1</ele>
        <time>2020-06-27T14:21:26Z</time>
      </trkpt>
      <trkpt lat="42.945514" lon="-0.287034">
        <ele>1946.2</ele>
        <time>2020-06-27T14:21:33Z</time>
      </trkpt>
      <trkpt lat="42.945518" lon="-0.286929">
        <ele>1943.8</ele>
        <time>2020-06-27T14:21:42Z</time>
      </trkpt>
      <trkpt lat="42.945566" lon="-0.286835">
        <ele>1941.3</ele>
        <time>2020-06-27T14:21:52Z</time>
      </trkpt>
      <trkpt lat="42.945606" lon="-0.286727">
        <ele>1939.4</ele>
        <time>2020-06-27T14:22:05Z</time>
      </trkpt>
      <trkpt lat="42.945651" lon="-0.286608">
        <ele>1937.4</ele>
        <time>2020-06-27T14:22:17Z</time>
      </trkpt>
      <trkpt lat="42.945725" lon="-0.286518">
        <ele>1936.5</ele>
        <time>2020-06-27T14:22:28Z</time>
      </trkpt>
      <trkpt lat="42.945778" lon="-0.286425">
        <ele>1935.7</ele>
        <time>2020-06-27T14:22:58Z</time>
      </trkpt>
      <trkpt lat="42.945848" lon="-0.286335">
        <ele>1934.7</ele>
        <time>2020-06-27T14:23:08Z</time>
      </trkpt>
      <trkpt lat="42.945925" lon="-0.286256">
        <ele>1933.9</ele>
        <time>2020-06-27T14:23:19Z</time>
      </trkpt>
      <trkpt lat="42.945989" lon="-0.286146">
        <ele>1932.9</ele>
        <time>2020-06-27T14:23:44Z</time>
      </trkpt>
      <trkpt lat="42.946071" lon="-0.286089">
        <ele>1931.1</ele>
        <time>2020-06-27T14:23:59Z</time>
      </trkpt>
      <trkpt lat="42.946153" lon="-0.286023">
        <ele>1928.3</ele>
        <time>2020-06-27T14:24:13Z</time>
      </trkpt>
      <trkpt lat="42.946241" lon="-0.285966">
        <ele>1924.7</ele>
        <time>2020-06-27T14:24:26Z</time>
      </trkpt>
      <trkpt lat="42.946308" lon="-0.285882">
        <ele>1921.9</ele>
        <time>2020-06-27T14:24:39Z</time>
      </trkpt>
      <trkpt lat="42.946359" lon="-0.285802">
        <ele>1918.4</ele>
        <time>2020-06-27T14:25:10Z</time>
      </trkpt>
      <trkpt lat="42.946429" lon="-0.285730">
        <ele>1914.0</ele>
        <time>2020-06-27T14:25:27Z</time>
      </trkpt>
      <trkpt lat="42.946463" lon="-0.285754">
        <ele>1910.4</ele>
        <time>2020-06-27T14:25:43Z</time>
      </trkpt>
      <trkpt lat="42.946544" lon="-0.285857">
        <ele>1906.8</ele>
        <time>2020-06-27T14:25:58Z</time>
      </trkpt>
      <trkpt lat="42.946602" lon="-0.285784">
        <ele>1903.8</ele>
        <time>2020-06-27T14:26:12Z</time>
      </trkpt>
      <trkpt lat="42.946636" lon="-0.285678">
        <ele>1899.6</ele>
        <time>2020-06-27T14:26:27Z</time>
      </trkpt>
      <trkpt lat="42.946684" lon="-0.285579">
        <ele>1895.9</ele>
        <time>2020-06-27T14:26:45Z</time>
      </trkpt>
      <trkpt lat="42.946734" lon="-0.285518">
        <ele>1891.9</ele>
        <time>2020-06-27T14:27:01Z</time>
      </trkpt>
      <trkpt lat="42.946772" lon="-0.285446">
        <ele>1888.5</ele>
        <time>2020-06-27T14:27:18Z</time>
      </trkpt>
      <trkpt lat="42.946847" lon="-0.285368">
        <ele>1883.9</ele>
        <time>2020-06-27T14:27:36Z</time>
      </trkpt>
      <trkpt lat="42.946910" lon="-0.285273">
        <ele>1878.9</ele>
        <time>2020-06-27T14:27:50Z</time>
      </trkpt>
      <trkpt lat="42.946971" lon="-0.285190">
        <ele>1876.1</ele>
        <time>2020-06-27T14:28:04Z</time>
      </trkpt>
      <trkpt lat="42.947042" lon="-0.285137">
        <ele>1873.1</ele>
        <time>2020-06-27T14:28:19Z</time>
      </trkpt>
      <trkpt lat="42.947092" lon="-0.285175">
        <ele>1868.6</ele>
        <time>2020-06-27T14:28:34Z</time>
      </trkpt>
      <trkpt lat="42.947150" lon="-0.285274">
        <ele>1866.2</ele>
        <time>2020-06-27T14:28:47Z</time>
      </trkpt>
      <trkpt lat="42.947206" lon="-0.285340">
        <ele>1862.3</ele>
        <time>2020-06-27T14:29:31Z</time>
      </trkpt>
      <trkpt lat="42.947289" lon="-0.285437">
        <ele>1859.6</ele>
        <time>2020-06-27T14:29:45Z</time>
      </trkpt>
      <trkpt lat="42.947369" lon="-0.285500">
        <ele>1855.1</ele>
        <time>2020-06-27T14:29:59Z</time>
      </trkpt>
      <trkpt lat="42.947445" lon="-0.285561">
        <ele>1851.6</ele>
        <time>2020-06-27T14:30:11Z</time>
      </trkpt>
      <trkpt lat="42.947530" lon="-0.285514">
        <ele>1848.8</ele>
        <time>2020-06-27T14:30:22Z</time>
      </trkpt>
      <trkpt lat="42.947574" lon="-0.285423">
        <ele>1845.3</ele>
        <time>2020-06-27T14:30:36Z</time>
      </trkpt>
      <trkpt lat="42.947659" lon="-0.285379">
        <ele>1839.9</ele>
        <time>2020-06-27T14:30:56Z</time>
      </trkpt>
      <trkpt lat="42.947725" lon="-0.285352">
        <ele>1836.3</ele>
        <time>2020-06-27T14:31:12Z</time>
      </trkpt>
      <trkpt lat="42.947834" lon="-0.285359">
        <ele>1833.8</ele>
        <time>2020-06-27T14:31:27Z</time>
      </trkpt>
      <trkpt lat="42.947881" lon="-0.285416">
        <ele>1830.1</ele>
        <time>2020-06-27T14:31:48Z</time>
      </trkpt>
      <trkpt lat="42.947954" lon="-0.285377">
        <ele>1826.6</ele>
        <time>2020-06-27T14:32:05Z</time>
      </trkpt>
      <trkpt lat="42.948051" lon="-0.285404">
        <ele>1823.6</ele>
        <time>2020-06-27T14:32:19Z</time>
      </trkpt>
      <trkpt lat="42.948119" lon="-0.285360">
        <ele>1821.9</ele>
        <time>2020-06-27T14:32:31Z</time>
      </trkpt>
      <trkpt lat="42.948049" lon="-0.285273">
        <ele>1818.3</ele>
        <time>2020-06-27T14:32:45Z</time>
      </trkpt>
      <trkpt lat="42.948109" lon="-0.285179">
        <ele>1814.8</ele>
        <time>2020-06-27T14:32:57Z</time>
      </trkpt>
      <trkpt lat="42.948141" lon="-0.285063">
        <ele>1812.1</ele>
        <time>2020-06-27T14:33:09Z</time>
      </trkpt>
      <trkpt lat="42.948183" lon="-0.284961">
        <ele>1809.5</ele>
        <time>2020-06-27T14:33:22Z</time>
      </trkpt>
      <trkpt lat="42.948246" lon="-0.284870">
        <ele>1806.9</ele>
        <time>2020-06-27T14:33:34Z</time>
      </trkpt>
      <trkpt lat="42.948314" lon="-0.284791">
        <ele>1804.2</ele>
        <time>2020-06-27T14:33:46Z</time>
      </trkpt>
      <trkpt lat="42.948352" lon="-0.284696">
        <ele>1799.5</ele>
        <time>2020-06-27T14:34:01Z</time>
      </trkpt>
      <trkpt lat="42.948415" lon="-0.284614">
        <ele>1796.7</ele>
        <time>2020-06-27T14:34:17Z</time>
      </trkpt>
      <trkpt lat="42.948466" lon="-0.284531">
        <ele>1794.2</ele>
        <time>2020-06-27T14:34:38Z</time>
      </trkpt>
      <trkpt lat="42.948502" lon="-0.284563">
        <ele>1791.7</ele>
        <time>2020-06-27T14:34:56Z</time>
      </trkpt>
      <trkpt lat="42.948549" lon="-0.284507">
        <ele>1788.6</ele>
        <time>2020-06-27T14:35:09Z</time>
      </trkpt>
      <trkpt lat="42.948652" lon="-0.284428">
        <ele>1785.2</ele>
        <time>2020-06-27T14:35:24Z</time>
      </trkpt>
      <trkpt lat="42.948695" lon="-0.284521">
        <ele>1783.4</ele>
        <time>2020-06-27T14:35:49Z</time>
      </trkpt>
      <trkpt lat="42.948737" lon="-0.284612">
        <ele>1780.7</ele>
        <time>2020-06-27T14:36:02Z</time>
      </trkpt>
      <trkpt lat="42.948761" lon="-0.284495">
        <ele>1778.9</ele>
        <time>2020-06-27T14:36:12Z</time>
      </trkpt>
      <trkpt lat="42.948811" lon="-0.284398">
        <ele>1777.2</ele>
        <time>2020-06-27T14:36:23Z</time>
      </trkpt>
      <trkpt lat="42.948861" lon="-0.284287">
        <ele>1774.6</ele>
        <time>2020-06-27T14:36:36Z</time>
      </trkpt>
      <trkpt lat="42.948895" lon="-0.284161">
        <ele>1771.9</ele>
        <time>2020-06-27T14:36:49Z</time>
      </trkpt>
      <trkpt lat="42.948981" lon="-0.284089">
        <ele>1768.1</ele>
        <time>2020-06-27T14:37:04Z</time>
      </trkpt>
      <trkpt lat="42.949062" lon="-0.284017">
        <ele>1764.3</ele>
        <time>2020-06-27T14:37:18Z</time>
      </trkpt>
      <trkpt lat="42.949174" lon="-0.284004">
        <ele>1759.3</ele>
        <time>2020-06-27T14:37:35Z</time>
      </trkpt>
      <trkpt lat="42.949273" lon="-0.284005">
        <ele>1755.5</ele>
        <time>2020-06-27T14:37:49Z</time>
      </trkpt>
      <trkpt lat="42.949354" lon="-0.283963">
        <ele>1752.4</ele>
        <time>2020-06-27T14:38:00Z</time>
      </trkpt>
      <trkpt lat="42.949451" lon="-0.283933">
        <ele>1748.6</ele>
        <time>2020-06-27T14:38:17Z</time>
      </trkpt>
      <trkpt lat="42.949541" lon="-0.283929">
        <ele>1745.7</ele>
        <time>2020-06-27T14:38:29Z</time>
      </trkpt>
      <trkpt lat="42.949636" lon="-0.283902">
        <ele>1741.9</ele>
        <time>2020-06-27T14:38:41Z</time>
      </trkpt>
      <trkpt lat="42.949692" lon="-0.283928">
        <ele>1738.9</ele>
        <time>2020-06-27T14:38:55Z</time>
      </trkpt>
      <trkpt lat="42.949651" lon="-0.284053">
        <ele>1736.2</ele>
        <time>2020-06-27T14:39:07Z</time>
      </trkpt>
      <trkpt lat="42.949619" lon="-0.284181">
        <ele>1733.6</ele>
        <time>2020-06-27T14:39:18Z</time>
      </trkpt>
      <trkpt lat="42.949615" lon="-0.284309">
        <ele>1730.7</ele>
        <time>2020-06-27T14:39:29Z</time>
      </trkpt>
      <trkpt lat="42.949620" lon="-0.284438">
        <ele>1728.1</ele>
        <time>2020-06-27T14:39:41Z</time>
      </trkpt>
      <trkpt lat="42.949635" lon="-0.284563">
        <ele>1725.0</ele>
        <time>2020-06-27T14:39:53Z</time>
      </trkpt>
      <trkpt lat="42.949685" lon="-0.284674">
        <ele>1721.2</ele>
        <time>2020-06-27T14:40:04Z</time>
      </trkpt>
      <trkpt lat="42.949754" lon="-0.284783">
        <ele>1717.7</ele>
        <time>2020-06-27T14:40:15Z</time>
      </trkpt>
      <trkpt lat="42.949817" lon="-0.284884">
        <ele>1714.4</ele>
        <time>2020-06-27T14:40:24Z</time>
      </trkpt>
      <trkpt lat="42.949912" lon="-0.284916">
        <ele>1712.0</ele>
        <time>2020-06-27T14:40:33Z</time>
      </trkpt>
      <trkpt lat="42.949987" lon="-0.284849">
        <ele>1710.0</ele>
        <time>2020-06-27T14:40:41Z</time>
      </trkpt>
      <trkpt lat="42.950013" lon="-0.284735">
        <ele>1707.4</ele>
        <time>2020-06-27T14:40:50Z</time>
      </trkpt>
      <trkpt lat="42.950075" lon="-0.284801">
        <ele>1704.9</ele>
        <time>2020-06-27T14:41:01Z</time>
      </trkpt>
      <trkpt lat="42.950119" lon="-0.284895">
        <ele>1703.1</ele>
        <time>2020-06-27T14:41:17Z</time>
      </trkpt>
      <trkpt lat="42.950115" lon="-0.285016">
        <ele>1701.4</ele>
        <time>2020-06-27T14:41:32Z</time>
      </trkpt>
      <trkpt lat="42.950086" lon="-0.285136">
        <ele>1698.7</ele>
        <time>2020-06-27T14:41:48Z</time>
      </trkpt>
      <trkpt lat="42.950191" lon="-0.285145">
        <ele>1696.1</ele>
        <time>2020-06-27T14:42:01Z</time>
      </trkpt>
      <trkpt lat="42.950284" lon="-0.285166">
        <ele>1693.0</ele>
        <time>2020-06-27T14:42:14Z</time>
      </trkpt>
      <trkpt lat="42.950321" lon="-0.285060">
        <ele>1690.2</ele>
        <time>2020-06-27T14:42:31Z</time>
      </trkpt>
      <trkpt lat="42.950374" lon="-0.285103">
        <ele>1686.5</ele>
        <time>2020-06-27T14:42:43Z</time>
      </trkpt>
      <trkpt lat="42.950408" lon="-0.284991">
        <ele>1683.8</ele>
        <time>2020-06-27T14:42:56Z</time>
      </trkpt>
      <trkpt lat="42.950455" lon="-0.284943">
        <ele>1680.4</ele>
        <time>2020-06-27T14:43:08Z</time>
      </trkpt>
      <trkpt lat="42.950472" lon="-0.284863">
        <ele>1676.7</ele>
        <time>2020-06-27T14:43:21Z</time>
      </trkpt>
      <trkpt lat="42.950486" lon="-0.284745">
        <ele>1672.8</ele>
        <time>2020-06-27T14:43:35Z</time>
      </trkpt>
      <trkpt lat="42.950556" lon="-0.284653">
        <ele>1668.4</ele>
        <time>2020-06-27T14:43:48Z</time>
      </trkpt>
      <trkpt lat="42.950640" lon="-0.284583">
        <ele>1662.7</ele>
        <time>2020-06-27T14:44:02Z</time>
      </trkpt>
      <trkpt lat="42.950733" lon="-0.284526">
        <ele>1658.6</ele>
        <time>2020-06-27T14:44:14Z</time>
      </trkpt>
      <trkpt lat="42.950772" lon="-0.284586">
        <ele>1654.8</ele>
        <time>2020-06-27T14:44:24Z</time>
      </trkpt>
      <trkpt lat="42.950751" lon="-0.284706">
        <ele>1649.4</ele>
        <time>2020-06-27T14:44:36Z</time>
      </trkpt>
      <trkpt lat="42.950805" lon="-0.284818">
        <ele>1645.4</ele>
        <time>2020-06-27T14:44:46Z</time>
      </trkpt>
      <trkpt lat="42.950825" lon="-0.284947">
        <ele>1643.0</ele>
        <time>2020-06-27T14:44:55Z</time>
      </trkpt>
      <trkpt lat="42.950825" lon="-0.285085">
        <ele>1642.3</ele>
        <time>2020-06-27T14:45:03Z</time>
      </trkpt>
      <trkpt lat="42.950812" lon="-0.285221">
        <ele>1642.4</ele>
        <time>2020-06-27T14:45:11Z</time>
      </trkpt>
      <trkpt lat="42.950828" lon="-0.285350">
        <ele>1642.4</ele>
        <time>2020-06-27T14:45:21Z</time>
      </trkpt>
      <trkpt lat="42.950790" lon="-0.285491">
        <ele>1642.1</ele>
        <time>2020-06-27T14:45:37Z</time>
      </trkpt>
      <trkpt lat="42.950811" lon="-0.285597">
        <ele>1638.4</ele>
        <time>2020-06-27T14:46:04Z</time>
      </trkpt>
      <trkpt lat="42.950793" lon="-0.285721">
        <ele>1634.7</ele>
        <time>2020-06-27T14:46:16Z</time>
      </trkpt>
      <trkpt lat="42.950858" lon="-0.285804">
        <ele>1631.0</ele>
        <time>2020-06-27T14:46:26Z</time>
      </trkpt>
      <trkpt lat="42.950910" lon="-0.285905">
        <ele>1626.5</ele>
        <time>2020-06-27T14:46:39Z</time>
      </trkpt>
      <trkpt lat="42.950985" lon="-0.286005">
        <ele>1621.4</ele>
        <time>2020-06-27T14:46:53Z</time>
      </trkpt>
      <trkpt lat="42.951053" lon="-0.286100">
        <ele>1617.5</ele>
        <time>2020-06-27T14:47:03Z</time>
      </trkpt>
      <trkpt lat="42.951114" lon="-0.286201">
        <ele>1616.6</ele>
        <time>2020-06-27T14:47:12Z</time>
      </trkpt>
      <trkpt lat="42.951180" lon="-0.286287">
        <ele>1615.9</ele>
        <time>2020-06-27T14:47:22Z</time>
      </trkpt>
      <trkpt lat="42.951225" lon="-0.286392">
        <ele>1613.8</ele>
        <time>2020-06-27T14:47:32Z</time>
      </trkpt>
      <trkpt lat="42.951237" lon="-0.286516">
        <ele>1611.8</ele>
        <time>2020-06-27T14:47:44Z</time>
      </trkpt>
      <trkpt lat="42.951261" lon="-0.286640">
        <ele>1609.1</ele>
        <time>2020-06-27T14:48:23Z</time>
      </trkpt>
      <trkpt lat="42.951270" lon="-0.286776">
        <ele>1606.9</ele>
        <time>2020-06-27T14:48:38Z</time>
      </trkpt>
      <trkpt lat="42.951318" lon="-0.286828">
        <ele>1604.1</ele>
        <time>2020-06-27T14:48:58Z</time>
      </trkpt>
      <trkpt lat="42.951363" lon="-0.286910">
        <ele>1599.7</ele>
        <time>2020-06-27T14:49:19Z</time>
      </trkpt>
      <trkpt lat="42.951429" lon="-0.286912">
        <ele>1596.2</ele>
        <time>2020-06-27T14:49:33Z</time>
      </trkpt>
      <trkpt lat="42.951381" lon="-0.286988">
        <ele>1595.3</ele>
        <time>2020-06-27T14:49:49Z</time>
      </trkpt>
      <trkpt lat="42.951439" lon="-0.287051">
        <ele>1591.6</ele>
        <time>2020-06-27T14:50:04Z</time>
      </trkpt>
      <trkpt lat="42.951510" lon="-0.287035">
        <ele>1585.9</ele>
        <time>2020-06-27T14:50:23Z</time>
      </trkpt>
      <trkpt lat="42.951593" lon="-0.287036">
        <ele>1582.2</ele>
        <time>2020-06-27T14:50:38Z</time>
      </trkpt>
      <trkpt lat="42.951641" lon="-0.287118">
        <ele>1578.8</ele>
        <time>2020-06-27T14:50:54Z</time>
      </trkpt>
      <trkpt lat="42.951703" lon="-0.287028">
        <ele>1575.3</ele>
        <time>2020-06-27T14:51:06Z</time>
      </trkpt>
      <trkpt lat="42.951774" lon="-0.287028">
        <ele>1572.3</ele>
        <time>2020-06-27T14:51:20Z</time>
      </trkpt>
      <trkpt lat="42.951806" lon="-0.286918">
        <ele>1569.3</ele>
        <time>2020-06-27T14:51:32Z</time>
      </trkpt>
      <trkpt lat="42.951855" lon="-0.286838">
        <ele>1565.4</ele>
        <time>2020-06-27T14:51:46Z</time>
      </trkpt>
      <trkpt lat="42.951902" lon="-0.286906">
        <ele>1562.9</ele>
        <time>2020-06-27T14:52:21Z</time>
      </trkpt>
      <trkpt lat="42.951957" lon="-0.287017">
        <ele>1561.1</ele>
        <time>2020-06-27T14:52:35Z</time>
      </trkpt>
      <trkpt lat="42.951998" lon="-0.287128">
        <ele>1558.7</ele>
        <time>2020-06-27T14:52:49Z</time>
      </trkpt>
      <trkpt lat="42.952036" lon="-0.287147">
        <ele>1555.8</ele>
        <time>2020-06-27T14:53:37Z</time>
      </trkpt>
      <trkpt lat="42.952028" lon="-0.287277">
        <ele>1552.3</ele>
        <time>2020-06-27T14:53:54Z</time>
      </trkpt>
      <trkpt lat="42.952031" lon="-0.287396">
        <ele>1550.6</ele>
        <time>2020-06-27T14:54:08Z</time>
      </trkpt>
      <trkpt lat="42.952096" lon="-0.287364">
        <ele>1547.1</ele>
        <time>2020-06-27T14:54:24Z</time>
      </trkpt>
      <trkpt lat="42.952160" lon="-0.287414">
        <ele>1543.1</ele>
        <time>2020-06-27T14:54:38Z</time>
      </trkpt>
      <trkpt lat="42.952221" lon="-0.287473">
        <ele>1539.4</ele>
        <time>2020-06-27T14:54:54Z</time>
      </trkpt>
      <trkpt lat="42.952304" lon="-0.287384">
        <ele>1533.6</ele>
        <time>2020-06-27T14:55:19Z</time>
      </trkpt>
      <trkpt lat="42.952343" lon="-0.287258">
        <ele>1529.1</ele>
        <time>2020-06-27T14:55:39Z</time>
      </trkpt>
      <trkpt lat="42.952439" lon="-0.287280">
        <ele>1522.6</ele>
        <time>2020-06-27T14:56:02Z</time>
      </trkpt>
      <trkpt lat="42.952523" lon="-0.287294">
        <ele>1520.0</ele>
        <time>2020-06-27T14:56:22Z</time>
      </trkpt>
      <trkpt lat="42.952575" lon="-0.287304">
        <ele>1512.6</ele>
        <time>2020-06-27T14:57:55Z</time>
      </trkpt>
      <trkpt lat="42.952635" lon="-0.287364">
        <ele>1510.1</ele>
        <time>2020-06-27T14:59:28Z</time>
      </trkpt>
      <trkpt lat="42.952732" lon="-0.287422">
        <ele>1505.5</ele>
        <time>2020-06-27T14:59:47Z</time>
      </trkpt>
      <trkpt lat="42.952816" lon="-0.287473">
        <ele>1499.7</ele>
        <time>2020-06-27T15:00:06Z</time>
      </trkpt>
      <trkpt lat="42.952941" lon="-0.287472">
        <ele>1493.6</ele>
        <time>2020-06-27T15:00:26Z</time>
      </trkpt>
      <trkpt lat="42.952982" lon="-0.287554">
        <ele>1488.8</ele>
        <time>2020-06-27T15:00:49Z</time>
      </trkpt>
      <trkpt lat="42.953091" lon="-0.287545">
        <ele>1482.6</ele>
        <time>2020-06-27T15:01:07Z</time>
      </trkpt>
      <trkpt lat="42.953177" lon="-0.287658">
        <ele>1476.1</ele>
        <time>2020-06-27T15:01:27Z</time>
      </trkpt>
      <trkpt lat="42.953267" lon="-0.287748">
        <ele>1469.9</ele>
        <time>2020-06-27T15:01:48Z</time>
      </trkpt>
      <trkpt lat="42.953326" lon="-0.287848">
        <ele>1464.1</ele>
        <time>2020-06-27T15:02:08Z</time>
      </trkpt>
      <trkpt lat="42.953414" lon="-0.287913">
        <ele>1458.8</ele>
        <time>2020-06-27T15:02:28Z</time>
      </trkpt>
      <trkpt lat="42.953490" lon="-0.287979">
        <ele>1452.6</ele>
        <time>2020-06-27T15:02:51Z</time>
      </trkpt>
      <trkpt lat="42.953496" lon="-0.288084">
        <ele>1448.2</ele>
        <time>2020-06-27T15:03:09Z</time>
      </trkpt>
      <trkpt lat="42.953411" lon="-0.288159">
        <ele>1443.6</ele>
        <time>2020-06-27T15:03:30Z</time>
      </trkpt>
      <trkpt lat="42.953450" lon="-0.288258">
        <ele>1436.7</ele>
        <time>2020-06-27T15:03:51Z</time>
      </trkpt>
      <trkpt lat="42.953527" lon="-0.288359">
        <ele>1431.6</ele>
        <time>2020-06-27T15:04:07Z</time>
      </trkpt>
      <trkpt lat="42.953501" lon="-0.288467">
        <ele>1430.8</ele>
        <time>2020-06-27T15:04:24Z</time>
      </trkpt>
      <trkpt lat="42.953608" lon="-0.288608">
        <ele>1426.5</ele>
        <time>2020-06-27T15:04:42Z</time>
      </trkpt>
      <trkpt lat="42.953690" lon="-0.288733">
        <ele>1423.0</ele>
        <time>2020-06-27T15:04:57Z</time>
      </trkpt>
      <trkpt lat="42.953749" lon="-0.288877">
        <ele>1419.3</ele>
        <time>2020-06-27T15:05:15Z</time>
      </trkpt>
      <trkpt lat="42.953791" lon="-0.288886">
        <ele>1416.7</ele>
        <time>2020-06-27T15:05:32Z</time>
      </trkpt>
      <trkpt lat="42.953855" lon="-0.288953">
        <ele>1412.3</ele>
        <time>2020-06-27T15:05:51Z</time>
      </trkpt>
      <trkpt lat="42.953883" lon="-0.288892">
        <ele>1406.8</ele>
        <time>2020-06-27T15:06:12Z</time>
      </trkpt>
      <trkpt lat="42.953962" lon="-0.288850">
        <ele>1401.2</ele>
        <time>2020-06-27T15:06:33Z</time>
      </trkpt>
      <trkpt lat="42.954010" lon="-0.288757">
        <ele>1395.5</ele>
        <time>2020-06-27T15:07:04Z</time>
      </trkpt>
      <trkpt lat="42.954084" lon="-0.288849">
        <ele>1390.3</ele>
        <time>2020-06-27T15:07:24Z</time>
      </trkpt>
      <trkpt lat="42.954229" lon="-0.288971">
        <ele>1385.6</ele>
        <time>2020-06-27T15:07:43Z</time>
      </trkpt>
      <trkpt lat="42.954360" lon="-0.289034">
        <ele>1380.0</ele>
        <time>2020-06-27T15:08:02Z</time>
      </trkpt>
      <trkpt lat="42.954490" lon="-0.289077">
        <ele>1376.4</ele>
        <time>2020-06-27T15:08:19Z</time>
      </trkpt>
      <trkpt lat="42.954659" lon="-0.289128">
        <ele>1375.4</ele>
        <time>2020-06-27T15:08:37Z</time>
      </trkpt>
      <trkpt lat="42.954732" lon="-0.289244">
        <ele>1372.1</ele>
        <time>2020-06-27T15:08:54Z</time>
      </trkpt>
      <trkpt lat="42.954824" lon="-0.289346">
        <ele>1367.5</ele>
        <time>2020-06-27T15:09:11Z</time>
      </trkpt>
      <trkpt lat="42.954923" lon="-0.289513">
        <ele>1364.1</ele>
        <time>2020-06-27T15:09:28Z</time>
      </trkpt>
      <trkpt lat="42.954974" lon="-0.289424">
        <ele>1362.3</ele>
        <time>2020-06-27T15:09:41Z</time>
      </trkpt>
      <trkpt lat="42.954946" lon="-0.289281">
        <ele>1362.3</ele>
        <time>2020-06-27T15:09:50Z</time>
      </trkpt>
      <trkpt lat="42.954874" lon="-0.289172">
        <ele>1362.3</ele>
        <time>2020-06-27T15:09:59Z</time>
      </trkpt>
      <trkpt lat="42.954788" lon="-0.289083">
        <ele>1362.2</ele>
        <time>2020-06-27T15:10:09Z</time>
      </trkpt>
      <trkpt lat="42.954705" lon="-0.289006">
        <ele>1362.2</ele>
        <time>2020-06-27T15:10:18Z</time>
      </trkpt>
      <trkpt lat="42.954620" lon="-0.288937">
        <ele>1362.1</ele>
        <time>2020-06-27T15:10:27Z</time>
      </trkpt>
      <trkpt lat="42.954538" lon="-0.288848">
        <ele>1362.1</ele>
        <time>2020-06-27T15:10:36Z</time>
      </trkpt>
      <trkpt lat="42.954474" lon="-0.288720">
        <ele>1361.3</ele>
        <time>2020-06-27T15:10:45Z</time>
      </trkpt>
      <trkpt lat="42.954413" lon="-0.288609">
        <ele>1361.2</ele>
        <time>2020-06-27T15:10:54Z</time>
      </trkpt>
      <trkpt lat="42.954358" lon="-0.288483">
        <ele>1361.2</ele>
        <time>2020-06-27T15:11:04Z</time>
      </trkpt>
      <trkpt lat="42.954331" lon="-0.288341">
        <ele>1361.1</ele>
        <time>2020-06-27T15:11:14Z</time>
      </trkpt>
      <trkpt lat="42.954316" lon="-0.288200">
        <ele>1361.1</ele>
        <time>2020-06-27T15:11:23Z</time>
      </trkpt>
      <trkpt lat="42.954306" lon="-0.288047">
        <ele>1361.0</ele>
        <time>2020-06-27T15:11:33Z</time>
      </trkpt>
      <trkpt lat="42.954283" lon="-0.287904">
        <ele>1361.0</ele>
        <time>2020-06-27T15:11:42Z</time>
      </trkpt>
      <trkpt lat="42.954231" lon="-0.287780">
        <ele>1361.0</ele>
        <time>2020-06-27T15:11:51Z</time>
      </trkpt>
      <trkpt lat="42.954174" lon="-0.287648">
        <ele>1360.9</ele>
        <time>2020-06-27T15:12:02Z</time>
      </trkpt>
      <trkpt lat="42.954121" lon="-0.287526">
        <ele>1359.9</ele>
        <time>2020-06-27T15:12:14Z</time>
      </trkpt>
      <trkpt lat="42.954078" lon="-0.287417">
        <ele>1359.8</ele>
        <time>2020-06-27T15:12:23Z</time>
      </trkpt>
      <trkpt lat="42.954029" lon="-0.287300">
        <ele>1359.8</ele>
        <time>2020-06-27T15:12:33Z</time>
      </trkpt>
      <trkpt lat="42.953974" lon="-0.287195">
        <ele>1359.8</ele>
        <time>2020-06-27T15:12:40Z</time>
      </trkpt>
      <trkpt lat="42.953955" lon="-0.287140">
        <ele>1366.6</ele>
        <time>2020-06-27T15:12:44Z</time>
      </trkpt>
    </trkseg>
  </trk>
</gpx>

